<?xml version="1.0" encoding="UTF-8" standalone="no" ?>
<gpx xmlns="http://www.topografix.com/GPX/1/1" xmlns:xsi="http://www.w3.org/2001/XMLSchema-instance" xsi:schemaLocation="http://www.topografix.com/GPX/1/1 http://www.topografix.com/GPX/1/1/gpx.xsd" version="1.1" creator="VisuGPX - https://www.visugpx.com">
  <metadata>
    <name>rando 07/09</name>
    <desc><![CDATA[début de saison]]></desc>
  </metadata>
  <trk>
    <name><![CDATA[rando 07/09_1]]></name>
    <trkseg>
      <trkpt lat="44.03557" lon="0.37142">
        <ele>68</ele>
        <time>2015-09-03T06:40:25Z</time>
      </trkpt>
      <trkpt lat="44.0355" lon="0.3715">
        <ele>68</ele>
        <time>2015-09-03T06:40:46Z</time>
      </trkpt>
      <trkpt lat="44.03542" lon="0.37143">
        <ele>67</ele>
        <time>2015-09-03T06:41:24Z</time>
      </trkpt>
      <trkpt lat="44.03544" lon="0.3713">
        <ele>67</ele>
        <time>2015-09-03T06:41:33Z</time>
      </trkpt>
      <trkpt lat="44.0355" lon="0.3712">
        <ele>67</ele>
        <time>2015-09-03T06:41:45Z</time>
      </trkpt>
      <trkpt lat="44.03555" lon="0.37108">
        <ele>67</ele>
        <time>2015-09-03T06:41:54Z</time>
      </trkpt>
      <trkpt lat="44.03559" lon="0.37096">
        <ele>63</ele>
        <time>2015-09-03T06:42:04Z</time>
      </trkpt>
      <trkpt lat="44.03563" lon="0.37084">
        <ele>63</ele>
        <time>2015-09-03T06:42:14Z</time>
      </trkpt>
      <trkpt lat="44.03567" lon="0.37073">
        <ele>63</ele>
        <time>2015-09-03T06:42:27Z</time>
      </trkpt>
      <trkpt lat="44.03571" lon="0.37061">
        <ele>63</ele>
        <time>2015-09-03T06:42:37Z</time>
      </trkpt>
      <trkpt lat="44.03574" lon="0.37048">
        <ele>63</ele>
        <time>2015-09-03T06:42:49Z</time>
      </trkpt>
      <trkpt lat="44.03576" lon="0.37035">
        <ele>63</ele>
        <time>2015-09-03T06:42:58Z</time>
      </trkpt>
      <trkpt lat="44.03579" lon="0.37023">
        <ele>63</ele>
        <time>2015-09-03T06:43:04Z</time>
      </trkpt>
      <trkpt lat="44.03583" lon="0.37011">
        <ele>58</ele>
        <time>2015-09-03T06:43:13Z</time>
      </trkpt>
      <trkpt lat="44.0359" lon="0.37002">
        <ele>58</ele>
        <time>2015-09-03T06:43:20Z</time>
      </trkpt>
      <trkpt lat="44.03594" lon="0.36991">
        <ele>58</ele>
        <time>2015-09-03T06:43:33Z</time>
      </trkpt>
      <trkpt lat="44.03602" lon="0.36984">
        <ele>58</ele>
        <time>2015-09-03T06:43:43Z</time>
      </trkpt>
      <trkpt lat="44.03611" lon="0.36979">
        <ele>58</ele>
        <time>2015-09-03T06:43:55Z</time>
      </trkpt>
      <trkpt lat="44.0362" lon="0.36978">
        <ele>58</ele>
        <time>2015-09-03T06:44:04Z</time>
      </trkpt>
      <trkpt lat="44.0363" lon="0.36977">
        <ele>58</ele>
        <time>2015-09-03T06:44:11Z</time>
      </trkpt>
      <trkpt lat="44.03639" lon="0.36977">
        <ele>58</ele>
        <time>2015-09-03T06:44:20Z</time>
      </trkpt>
      <trkpt lat="44.03648" lon="0.36977">
        <ele>58</ele>
        <time>2015-09-03T06:44:28Z</time>
      </trkpt>
      <trkpt lat="44.03657" lon="0.36981">
        <ele>52</ele>
        <time>2015-09-03T06:44:36Z</time>
      </trkpt>
      <trkpt lat="44.03666" lon="0.36985">
        <ele>52</ele>
        <time>2015-09-03T06:44:43Z</time>
      </trkpt>
      <trkpt lat="44.03676" lon="0.36988">
        <ele>52</ele>
        <time>2015-09-03T06:44:50Z</time>
      </trkpt>
      <trkpt lat="44.03685" lon="0.3699">
        <ele>52</ele>
        <time>2015-09-03T06:44:58Z</time>
      </trkpt>
      <trkpt lat="44.03695" lon="0.36994">
        <ele>52</ele>
        <time>2015-09-03T06:45:08Z</time>
      </trkpt>
      <trkpt lat="44.03704" lon="0.36998">
        <ele>52</ele>
        <time>2015-09-03T06:45:17Z</time>
      </trkpt>
      <trkpt lat="44.03713" lon="0.36996">
        <ele>47</ele>
        <time>2015-09-03T06:45:29Z</time>
      </trkpt>
      <trkpt lat="44.03723" lon="0.36998">
        <ele>47</ele>
        <time>2015-09-03T06:45:36Z</time>
      </trkpt>
      <trkpt lat="44.03732" lon="0.37">
        <ele>47</ele>
        <time>2015-09-03T06:45:44Z</time>
      </trkpt>
      <trkpt lat="44.03741" lon="0.37003">
        <ele>47</ele>
        <time>2015-09-03T06:45:51Z</time>
      </trkpt>
      <trkpt lat="44.03751" lon="0.37007">
        <ele>47</ele>
        <time>2015-09-03T06:45:58Z</time>
      </trkpt>
      <trkpt lat="44.03761" lon="0.37012">
        <ele>47</ele>
        <time>2015-09-03T06:46:05Z</time>
      </trkpt>
      <trkpt lat="44.0377" lon="0.37018">
        <ele>47</ele>
        <time>2015-09-03T06:46:12Z</time>
      </trkpt>
      <trkpt lat="44.0378" lon="0.37021">
        <ele>47</ele>
        <time>2015-09-03T06:46:18Z</time>
      </trkpt>
      <trkpt lat="44.03789" lon="0.37026">
        <ele>47</ele>
        <time>2015-09-03T06:46:26Z</time>
      </trkpt>
      <trkpt lat="44.03799" lon="0.3703">
        <ele>47</ele>
        <time>2015-09-03T06:46:34Z</time>
      </trkpt>
      <trkpt lat="44.03808" lon="0.37034">
        <ele>47</ele>
        <time>2015-09-03T06:46:41Z</time>
      </trkpt>
      <trkpt lat="44.03817" lon="0.37041">
        <ele>43</ele>
        <time>2015-09-03T06:46:49Z</time>
      </trkpt>
      <trkpt lat="44.03825" lon="0.37047">
        <ele>43</ele>
        <time>2015-09-03T06:46:56Z</time>
      </trkpt>
      <trkpt lat="44.03832" lon="0.37056">
        <ele>43</ele>
        <time>2015-09-03T06:47:02Z</time>
      </trkpt>
      <trkpt lat="44.03838" lon="0.37065">
        <ele>43</ele>
        <time>2015-09-03T06:47:10Z</time>
      </trkpt>
      <trkpt lat="44.03845" lon="0.37076">
        <ele>43</ele>
        <time>2015-09-03T06:47:19Z</time>
      </trkpt>
      <trkpt lat="44.03852" lon="0.37084">
        <ele>43</ele>
        <time>2015-09-03T06:47:26Z</time>
      </trkpt>
      <trkpt lat="44.03859" lon="0.37095">
        <ele>43</ele>
        <time>2015-09-03T06:47:37Z</time>
      </trkpt>
      <trkpt lat="44.03866" lon="0.37104">
        <ele>43</ele>
        <time>2015-09-03T06:47:45Z</time>
      </trkpt>
      <trkpt lat="44.03874" lon="0.37112">
        <ele>43</ele>
        <time>2015-09-03T06:47:52Z</time>
      </trkpt>
      <trkpt lat="44.03881" lon="0.3712">
        <ele>39</ele>
        <time>2015-09-03T06:48:02Z</time>
      </trkpt>
      <trkpt lat="44.03889" lon="0.37129">
        <ele>39</ele>
        <time>2015-09-03T06:48:10Z</time>
      </trkpt>
      <trkpt lat="44.03897" lon="0.37135">
        <ele>39</ele>
        <time>2015-09-03T06:48:18Z</time>
      </trkpt>
      <trkpt lat="44.03905" lon="0.37142">
        <ele>39</ele>
        <time>2015-09-03T06:48:25Z</time>
      </trkpt>
      <trkpt lat="44.03914" lon="0.37147">
        <ele>39</ele>
        <time>2015-09-03T06:48:32Z</time>
      </trkpt>
      <trkpt lat="44.03923" lon="0.37152">
        <ele>39</ele>
        <time>2015-09-03T06:48:43Z</time>
      </trkpt>
      <trkpt lat="44.03931" lon="0.37158">
        <ele>39</ele>
        <time>2015-09-03T06:48:52Z</time>
      </trkpt>
      <trkpt lat="44.0394" lon="0.37165">
        <ele>39</ele>
        <time>2015-09-03T06:49:00Z</time>
      </trkpt>
      <trkpt lat="44.03949" lon="0.37173">
        <ele>39</ele>
        <time>2015-09-03T06:49:09Z</time>
      </trkpt>
      <trkpt lat="44.03957" lon="0.37181">
        <ele>39</ele>
        <time>2015-09-03T06:49:17Z</time>
      </trkpt>
      <trkpt lat="44.03965" lon="0.37187">
        <ele>39</ele>
        <time>2015-09-03T06:49:26Z</time>
      </trkpt>
      <trkpt lat="44.03973" lon="0.37194">
        <ele>39</ele>
        <time>2015-09-03T06:49:35Z</time>
      </trkpt>
      <trkpt lat="44.0398" lon="0.37202">
        <ele>39</ele>
        <time>2015-09-03T06:49:42Z</time>
      </trkpt>
      <trkpt lat="44.03988" lon="0.3721">
        <ele>39</ele>
        <time>2015-09-03T06:49:52Z</time>
      </trkpt>
      <trkpt lat="44.03994" lon="0.37219">
        <ele>43</ele>
        <time>2015-09-03T06:50:00Z</time>
      </trkpt>
      <trkpt lat="44.04002" lon="0.37228">
        <ele>43</ele>
        <time>2015-09-03T06:50:07Z</time>
      </trkpt>
      <trkpt lat="44.04008" lon="0.37238">
        <ele>43</ele>
        <time>2015-09-03T06:50:15Z</time>
      </trkpt>
      <trkpt lat="44.04015" lon="0.37248">
        <ele>43</ele>
        <time>2015-09-03T06:50:23Z</time>
      </trkpt>
      <trkpt lat="44.04022" lon="0.37259">
        <ele>43</ele>
        <time>2015-09-03T06:50:32Z</time>
      </trkpt>
      <trkpt lat="44.04028" lon="0.3727">
        <ele>43</ele>
        <time>2015-09-03T06:50:43Z</time>
      </trkpt>
      <trkpt lat="44.04035" lon="0.37279">
        <ele>43</ele>
        <time>2015-09-03T06:50:51Z</time>
      </trkpt>
      <trkpt lat="44.04041" lon="0.37289">
        <ele>43</ele>
        <time>2015-09-03T06:51:00Z</time>
      </trkpt>
      <trkpt lat="44.04048" lon="0.37298">
        <ele>43</ele>
        <time>2015-09-03T06:51:10Z</time>
      </trkpt>
      <trkpt lat="44.04053" lon="0.37309">
        <ele>43</ele>
        <time>2015-09-03T06:51:21Z</time>
      </trkpt>
      <trkpt lat="44.04058" lon="0.37319">
        <ele>43</ele>
        <time>2015-09-03T06:51:31Z</time>
      </trkpt>
      <trkpt lat="44.04064" lon="0.3733">
        <ele>43</ele>
        <time>2015-09-03T06:51:41Z</time>
      </trkpt>
      <trkpt lat="44.04071" lon="0.37339">
        <ele>43</ele>
        <time>2015-09-03T06:51:48Z</time>
      </trkpt>
      <trkpt lat="44.04078" lon="0.37348">
        <ele>43</ele>
        <time>2015-09-03T06:51:54Z</time>
      </trkpt>
      <trkpt lat="44.04084" lon="0.37357">
        <ele>43</ele>
        <time>2015-09-03T06:52:00Z</time>
      </trkpt>
      <trkpt lat="44.04091" lon="0.37365">
        <ele>43</ele>
        <time>2015-09-03T06:52:07Z</time>
      </trkpt>
      <trkpt lat="44.041" lon="0.37374">
        <ele>43</ele>
        <time>2015-09-03T06:52:14Z</time>
      </trkpt>
      <trkpt lat="44.04108" lon="0.37381">
        <ele>43</ele>
        <time>2015-09-03T06:52:19Z</time>
      </trkpt>
      <trkpt lat="44.04115" lon="0.37389">
        <ele>43</ele>
        <time>2015-09-03T06:52:27Z</time>
      </trkpt>
      <trkpt lat="44.04124" lon="0.37398">
        <ele>43</ele>
        <time>2015-09-03T06:52:35Z</time>
      </trkpt>
      <trkpt lat="44.04132" lon="0.37405">
        <ele>43</ele>
        <time>2015-09-03T06:52:40Z</time>
      </trkpt>
      <trkpt lat="44.0414" lon="0.37411">
        <ele>43</ele>
        <time>2015-09-03T06:52:47Z</time>
      </trkpt>
      <trkpt lat="44.04148" lon="0.37419">
        <ele>43</ele>
        <time>2015-09-03T06:52:54Z</time>
      </trkpt>
      <trkpt lat="44.04156" lon="0.37426">
        <ele>43</ele>
        <time>2015-09-03T06:53:01Z</time>
      </trkpt>
      <trkpt lat="44.04163" lon="0.37434">
        <ele>43</ele>
        <time>2015-09-03T06:53:11Z</time>
      </trkpt>
      <trkpt lat="44.0417" lon="0.37443">
        <ele>43</ele>
        <time>2015-09-03T06:53:19Z</time>
      </trkpt>
      <trkpt lat="44.04177" lon="0.37452">
        <ele>43</ele>
        <time>2015-09-03T06:53:25Z</time>
      </trkpt>
      <trkpt lat="44.04184" lon="0.37461">
        <ele>43</ele>
        <time>2015-09-03T06:53:33Z</time>
      </trkpt>
      <trkpt lat="44.04191" lon="0.37471">
        <ele>43</ele>
        <time>2015-09-03T06:53:40Z</time>
      </trkpt>
      <trkpt lat="44.04198" lon="0.3748">
        <ele>43</ele>
        <time>2015-09-03T06:53:46Z</time>
      </trkpt>
      <trkpt lat="44.04205" lon="0.37489">
        <ele>43</ele>
        <time>2015-09-03T06:53:53Z</time>
      </trkpt>
      <trkpt lat="44.04212" lon="0.37499">
        <ele>43</ele>
        <time>2015-09-03T06:54:02Z</time>
      </trkpt>
      <trkpt lat="44.04219" lon="0.37508">
        <ele>43</ele>
        <time>2015-09-03T06:54:09Z</time>
      </trkpt>
      <trkpt lat="44.04225" lon="0.37517">
        <ele>43</ele>
        <time>2015-09-03T06:54:17Z</time>
      </trkpt>
      <trkpt lat="44.04232" lon="0.37526">
        <ele>43</ele>
        <time>2015-09-03T06:54:25Z</time>
      </trkpt>
      <trkpt lat="44.04239" lon="0.37535">
        <ele>43</ele>
        <time>2015-09-03T06:54:32Z</time>
      </trkpt>
      <trkpt lat="44.04245" lon="0.37544">
        <ele>43</ele>
        <time>2015-09-03T06:54:41Z</time>
      </trkpt>
      <trkpt lat="44.04253" lon="0.37552">
        <ele>43</ele>
        <time>2015-09-03T06:54:49Z</time>
      </trkpt>
      <trkpt lat="44.04261" lon="0.37558">
        <ele>43</ele>
        <time>2015-09-03T06:55:00Z</time>
      </trkpt>
      <trkpt lat="44.04269" lon="0.37566">
        <ele>41</ele>
        <time>2015-09-03T06:57:47Z</time>
      </trkpt>
      <trkpt lat="44.04278" lon="0.37571">
        <ele>41</ele>
        <time>2015-09-03T06:57:56Z</time>
      </trkpt>
      <trkpt lat="44.04287" lon="0.37576">
        <ele>41</ele>
        <time>2015-09-03T06:58:07Z</time>
      </trkpt>
      <trkpt lat="44.04295" lon="0.37583">
        <ele>42</ele>
        <time>2015-09-03T06:58:18Z</time>
      </trkpt>
      <trkpt lat="44.04304" lon="0.37589">
        <ele>42</ele>
        <time>2015-09-03T06:58:26Z</time>
      </trkpt>
      <trkpt lat="44.04313" lon="0.37594">
        <ele>42</ele>
        <time>2015-09-03T06:58:35Z</time>
      </trkpt>
      <trkpt lat="44.04321" lon="0.37601">
        <ele>42</ele>
        <time>2015-09-03T06:58:43Z</time>
      </trkpt>
      <trkpt lat="44.04329" lon="0.37608">
        <ele>42</ele>
        <time>2015-09-03T06:58:54Z</time>
      </trkpt>
      <trkpt lat="44.04338" lon="0.37614">
        <ele>42</ele>
        <time>2015-09-03T06:59:03Z</time>
      </trkpt>
      <trkpt lat="44.0433" lon="0.37607">
        <ele>42</ele>
        <time>2015-09-03T06:59:27Z</time>
      </trkpt>
      <trkpt lat="44.0432" lon="0.37602">
        <ele>42</ele>
        <time>2015-09-03T06:59:37Z</time>
      </trkpt>
      <trkpt lat="44.04312" lon="0.37596">
        <ele>42</ele>
        <time>2015-09-03T06:59:45Z</time>
      </trkpt>
      <trkpt lat="44.04303" lon="0.37591">
        <ele>42</ele>
        <time>2015-09-03T06:59:51Z</time>
      </trkpt>
      <trkpt lat="44.04294" lon="0.37584">
        <ele>42</ele>
        <time>2015-09-03T07:00:00Z</time>
      </trkpt>
      <trkpt lat="44.04285" lon="0.37578">
        <ele>38</ele>
        <time>2015-09-03T07:00:08Z</time>
      </trkpt>
      <trkpt lat="44.04276" lon="0.37573">
        <ele>38</ele>
        <time>2015-09-03T07:00:14Z</time>
      </trkpt>
      <trkpt lat="44.04268" lon="0.37567">
        <ele>38</ele>
        <time>2015-09-03T07:00:23Z</time>
      </trkpt>
      <trkpt lat="44.04259" lon="0.37571">
        <ele>38</ele>
        <time>2015-09-03T07:00:33Z</time>
      </trkpt>
      <trkpt lat="44.04254" lon="0.37583">
        <ele>38</ele>
        <time>2015-09-03T07:00:43Z</time>
      </trkpt>
      <trkpt lat="44.0425" lon="0.37595">
        <ele>43</ele>
        <time>2015-09-03T07:00:52Z</time>
      </trkpt>
      <trkpt lat="44.04245" lon="0.37608">
        <ele>43</ele>
        <time>2015-09-03T07:01:00Z</time>
      </trkpt>
      <trkpt lat="44.04241" lon="0.37619">
        <ele>43</ele>
        <time>2015-09-03T07:01:10Z</time>
      </trkpt>
      <trkpt lat="44.04236" lon="0.3763">
        <ele>43</ele>
        <time>2015-09-03T07:01:18Z</time>
      </trkpt>
      <trkpt lat="44.04231" lon="0.37642">
        <ele>43</ele>
        <time>2015-09-03T07:01:27Z</time>
      </trkpt>
      <trkpt lat="44.04227" lon="0.37653">
        <ele>43</ele>
        <time>2015-09-03T07:01:35Z</time>
      </trkpt>
      <trkpt lat="44.04222" lon="0.37665">
        <ele>43</ele>
        <time>2015-09-03T07:01:42Z</time>
      </trkpt>
      <trkpt lat="44.04217" lon="0.37676">
        <ele>43</ele>
        <time>2015-09-03T07:01:52Z</time>
      </trkpt>
      <trkpt lat="44.04213" lon="0.37688">
        <ele>43</ele>
        <time>2015-09-03T07:02:00Z</time>
      </trkpt>
      <trkpt lat="44.04208" lon="0.37698">
        <ele>43</ele>
        <time>2015-09-03T07:02:06Z</time>
      </trkpt>
      <trkpt lat="44.04203" lon="0.3771">
        <ele>43</ele>
        <time>2015-09-03T07:02:16Z</time>
      </trkpt>
      <trkpt lat="44.04198" lon="0.37721">
        <ele>43</ele>
        <time>2015-09-03T07:02:23Z</time>
      </trkpt>
      <trkpt lat="44.04193" lon="0.37732">
        <ele>43</ele>
        <time>2015-09-03T07:02:33Z</time>
      </trkpt>
      <trkpt lat="44.04188" lon="0.37744">
        <ele>43</ele>
        <time>2015-09-03T07:02:42Z</time>
      </trkpt>
      <trkpt lat="44.04182" lon="0.37754">
        <ele>43</ele>
        <time>2015-09-03T07:02:49Z</time>
      </trkpt>
      <trkpt lat="44.04176" lon="0.37765">
        <ele>43</ele>
        <time>2015-09-03T07:02:58Z</time>
      </trkpt>
      <trkpt lat="44.04169" lon="0.37775">
        <ele>48</ele>
        <time>2015-09-03T07:03:06Z</time>
      </trkpt>
      <trkpt lat="44.04165" lon="0.37788">
        <ele>48</ele>
        <time>2015-09-03T07:03:13Z</time>
      </trkpt>
      <trkpt lat="44.0416" lon="0.37798">
        <ele>48</ele>
        <time>2015-09-03T07:03:22Z</time>
      </trkpt>
      <trkpt lat="44.04154" lon="0.3781">
        <ele>48</ele>
        <time>2015-09-03T07:03:30Z</time>
      </trkpt>
      <trkpt lat="44.04148" lon="0.37819">
        <ele>53</ele>
        <time>2015-09-03T07:03:39Z</time>
      </trkpt>
      <trkpt lat="44.04144" lon="0.3783">
        <ele>53</ele>
        <time>2015-09-03T07:03:47Z</time>
      </trkpt>
      <trkpt lat="44.04138" lon="0.3784">
        <ele>53</ele>
        <time>2015-09-03T07:03:54Z</time>
      </trkpt>
      <trkpt lat="44.04136" lon="0.37852">
        <ele>53</ele>
        <time>2015-09-03T07:04:15Z</time>
      </trkpt>
      <trkpt lat="44.04131" lon="0.37865">
        <ele>53</ele>
        <time>2015-09-03T07:04:26Z</time>
      </trkpt>
      <trkpt lat="44.04125" lon="0.37876">
        <ele>53</ele>
        <time>2015-09-03T07:04:35Z</time>
      </trkpt>
      <trkpt lat="44.0412" lon="0.37888">
        <ele>53</ele>
        <time>2015-09-03T07:04:45Z</time>
      </trkpt>
      <trkpt lat="44.04115" lon="0.37899">
        <ele>53</ele>
        <time>2015-09-03T07:04:54Z</time>
      </trkpt>
      <trkpt lat="44.0411" lon="0.3791">
        <ele>53</ele>
        <time>2015-09-03T07:05:02Z</time>
      </trkpt>
      <trkpt lat="44.04104" lon="0.37921">
        <ele>53</ele>
        <time>2015-09-03T07:05:13Z</time>
      </trkpt>
      <trkpt lat="44.04097" lon="0.37931">
        <ele>58</ele>
        <time>2015-09-03T07:05:21Z</time>
      </trkpt>
      <trkpt lat="44.04091" lon="0.3794">
        <ele>58</ele>
        <time>2015-09-03T07:05:30Z</time>
      </trkpt>
      <trkpt lat="44.04086" lon="0.37951">
        <ele>58</ele>
        <time>2015-09-03T07:05:38Z</time>
      </trkpt>
      <trkpt lat="44.0408" lon="0.37961">
        <ele>58</ele>
        <time>2015-09-03T07:05:46Z</time>
      </trkpt>
      <trkpt lat="44.04073" lon="0.37972">
        <ele>58</ele>
        <time>2015-09-03T07:05:56Z</time>
      </trkpt>
      <trkpt lat="44.04066" lon="0.37981">
        <ele>58</ele>
        <time>2015-09-03T07:06:03Z</time>
      </trkpt>
      <trkpt lat="44.0406" lon="0.37989">
        <ele>58</ele>
        <time>2015-09-03T07:06:13Z</time>
      </trkpt>
      <trkpt lat="44.04051" lon="0.37997">
        <ele>58</ele>
        <time>2015-09-03T07:06:24Z</time>
      </trkpt>
      <trkpt lat="44.04044" lon="0.38006">
        <ele>62</ele>
        <time>2015-09-03T07:06:32Z</time>
      </trkpt>
      <trkpt lat="44.04037" lon="0.38015">
        <ele>62</ele>
        <time>2015-09-03T07:06:41Z</time>
      </trkpt>
      <trkpt lat="44.0403" lon="0.38024">
        <ele>62</ele>
        <time>2015-09-03T07:06:48Z</time>
      </trkpt>
      <trkpt lat="44.04023" lon="0.38032">
        <ele>62</ele>
        <time>2015-09-03T07:06:58Z</time>
      </trkpt>
      <trkpt lat="44.04016" lon="0.38041">
        <ele>62</ele>
        <time>2015-09-03T07:07:06Z</time>
      </trkpt>
      <trkpt lat="44.0401" lon="0.3805">
        <ele>62</ele>
        <time>2015-09-03T07:07:13Z</time>
      </trkpt>
      <trkpt lat="44.04" lon="0.38051">
        <ele>62</ele>
        <time>2015-09-03T07:07:25Z</time>
      </trkpt>
      <trkpt lat="44.03993" lon="0.38043">
        <ele>62</ele>
        <time>2015-09-03T07:07:33Z</time>
      </trkpt>
      <trkpt lat="44.03986" lon="0.38034">
        <ele>62</ele>
        <time>2015-09-03T07:07:42Z</time>
      </trkpt>
      <trkpt lat="44.03979" lon="0.38024">
        <ele>62</ele>
        <time>2015-09-03T07:07:50Z</time>
      </trkpt>
      <trkpt lat="44.03974" lon="0.38014">
        <ele>62</ele>
        <time>2015-09-03T07:07:57Z</time>
      </trkpt>
      <trkpt lat="44.03969" lon="0.38004">
        <ele>62</ele>
        <time>2015-09-03T07:08:06Z</time>
      </trkpt>
      <trkpt lat="44.03964" lon="0.37993">
        <ele>62</ele>
        <time>2015-09-03T07:08:14Z</time>
      </trkpt>
      <trkpt lat="44.03959" lon="0.37982">
        <ele>62</ele>
        <time>2015-09-03T07:08:24Z</time>
      </trkpt>
      <trkpt lat="44.03953" lon="0.37971">
        <ele>62</ele>
        <time>2015-09-03T07:08:33Z</time>
      </trkpt>
      <trkpt lat="44.03947" lon="0.37961">
        <ele>62</ele>
        <time>2015-09-03T07:08:42Z</time>
      </trkpt>
      <trkpt lat="44.03941" lon="0.37951">
        <ele>63</ele>
        <time>2015-09-03T07:08:52Z</time>
      </trkpt>
      <trkpt lat="44.03936" lon="0.37941">
        <ele>63</ele>
        <time>2015-09-03T07:09:00Z</time>
      </trkpt>
      <trkpt lat="44.0393" lon="0.37931">
        <ele>68</ele>
        <time>2015-09-03T07:09:11Z</time>
      </trkpt>
      <trkpt lat="44.03923" lon="0.37921">
        <ele>68</ele>
        <time>2015-09-03T07:09:20Z</time>
      </trkpt>
      <trkpt lat="44.03915" lon="0.37915">
        <ele>68</ele>
        <time>2015-09-03T07:09:26Z</time>
      </trkpt>
      <trkpt lat="44.03907" lon="0.37908">
        <ele>68</ele>
        <time>2015-09-03T07:09:37Z</time>
      </trkpt>
      <trkpt lat="44.039" lon="0.37899">
        <ele>68</ele>
        <time>2015-09-03T07:09:44Z</time>
      </trkpt>
      <trkpt lat="44.03893" lon="0.37891">
        <ele>68</ele>
        <time>2015-09-03T07:09:56Z</time>
      </trkpt>
      <trkpt lat="44.03885" lon="0.37885">
        <ele>68</ele>
        <time>2015-09-03T07:10:04Z</time>
      </trkpt>
      <trkpt lat="44.03877" lon="0.37878">
        <ele>68</ele>
        <time>2015-09-03T07:10:10Z</time>
      </trkpt>
      <trkpt lat="44.03867" lon="0.37873">
        <ele>68</ele>
        <time>2015-09-03T07:10:18Z</time>
      </trkpt>
      <trkpt lat="44.03859" lon="0.37867">
        <ele>68</ele>
        <time>2015-09-03T07:10:26Z</time>
      </trkpt>
      <trkpt lat="44.0385" lon="0.37861">
        <ele>68</ele>
        <time>2015-09-03T07:10:33Z</time>
      </trkpt>
      <trkpt lat="44.03842" lon="0.37855">
        <ele>68</ele>
        <time>2015-09-03T07:10:41Z</time>
      </trkpt>
      <trkpt lat="44.03834" lon="0.37848">
        <ele>68</ele>
        <time>2015-09-03T07:10:48Z</time>
      </trkpt>
      <trkpt lat="44.03826" lon="0.37842">
        <ele>68</ele>
        <time>2015-09-03T07:10:57Z</time>
      </trkpt>
      <trkpt lat="44.03817" lon="0.37836">
        <ele>68</ele>
        <time>2015-09-03T07:11:05Z</time>
      </trkpt>
      <trkpt lat="44.03808" lon="0.3783">
        <ele>68</ele>
        <time>2015-09-03T07:11:13Z</time>
      </trkpt>
      <trkpt lat="44.038" lon="0.37824">
        <ele>68</ele>
        <time>2015-09-03T07:11:23Z</time>
      </trkpt>
      <trkpt lat="44.03792" lon="0.37817">
        <ele>68</ele>
        <time>2015-09-03T07:11:32Z</time>
      </trkpt>
      <trkpt lat="44.03784" lon="0.37811">
        <ele>70</ele>
        <time>2015-09-03T07:11:41Z</time>
      </trkpt>
      <trkpt lat="44.03776" lon="0.37805">
        <ele>70</ele>
        <time>2015-09-03T07:11:50Z</time>
      </trkpt>
      <trkpt lat="44.03768" lon="0.37799">
        <ele>70</ele>
        <time>2015-09-03T07:11:57Z</time>
      </trkpt>
      <trkpt lat="44.03761" lon="0.37791">
        <ele>70</ele>
        <time>2015-09-03T07:12:06Z</time>
      </trkpt>
      <trkpt lat="44.03753" lon="0.37784">
        <ele>70</ele>
        <time>2015-09-03T07:12:15Z</time>
      </trkpt>
      <trkpt lat="44.03744" lon="0.37777">
        <ele>70</ele>
        <time>2015-09-03T07:12:23Z</time>
      </trkpt>
      <trkpt lat="44.03735" lon="0.37771">
        <ele>70</ele>
        <time>2015-09-03T07:12:33Z</time>
      </trkpt>
      <trkpt lat="44.03727" lon="0.37764">
        <ele>75</ele>
        <time>2015-09-03T07:12:41Z</time>
      </trkpt>
      <trkpt lat="44.03719" lon="0.37758">
        <ele>75</ele>
        <time>2015-09-03T07:12:51Z</time>
      </trkpt>
      <trkpt lat="44.03712" lon="0.37749">
        <ele>75</ele>
        <time>2015-09-03T07:13:00Z</time>
      </trkpt>
      <trkpt lat="44.03705" lon="0.37741">
        <ele>75</ele>
        <time>2015-09-03T07:13:07Z</time>
      </trkpt>
      <trkpt lat="44.037" lon="0.37729">
        <ele>75</ele>
        <time>2015-09-03T07:13:18Z</time>
      </trkpt>
      <trkpt lat="44.03696" lon="0.37718">
        <ele>75</ele>
        <time>2015-09-03T07:13:26Z</time>
      </trkpt>
      <trkpt lat="44.03693" lon="0.37705">
        <ele>75</ele>
        <time>2015-09-03T07:13:36Z</time>
      </trkpt>
      <trkpt lat="44.03687" lon="0.37696">
        <ele>75</ele>
        <time>2015-09-03T07:13:44Z</time>
      </trkpt>
      <trkpt lat="44.0368" lon="0.37685">
        <ele>75</ele>
        <time>2015-09-03T07:13:53Z</time>
      </trkpt>
      <trkpt lat="44.03674" lon="0.37675">
        <ele>75</ele>
        <time>2015-09-03T07:14:02Z</time>
      </trkpt>
      <trkpt lat="44.03669" lon="0.37664">
        <ele>79</ele>
        <time>2015-09-03T07:14:10Z</time>
      </trkpt>
      <trkpt lat="44.03663" lon="0.37653">
        <ele>79</ele>
        <time>2015-09-03T07:14:19Z</time>
      </trkpt>
      <trkpt lat="44.03657" lon="0.37642">
        <ele>79</ele>
        <time>2015-09-03T07:14:27Z</time>
      </trkpt>
      <trkpt lat="44.03649" lon="0.37635">
        <ele>79</ele>
        <time>2015-09-03T07:14:43Z</time>
      </trkpt>
      <trkpt lat="44.03642" lon="0.37642">
        <ele>79</ele>
        <time>2015-09-03T07:14:54Z</time>
      </trkpt>
      <trkpt lat="44.03636" lon="0.37654">
        <ele>79</ele>
        <time>2015-09-03T07:15:08Z</time>
      </trkpt>
      <trkpt lat="44.03632" lon="0.37665">
        <ele>79</ele>
        <time>2015-09-03T07:15:14Z</time>
      </trkpt>
      <trkpt lat="44.03628" lon="0.37677">
        <ele>79</ele>
        <time>2015-09-03T07:15:23Z</time>
      </trkpt>
      <trkpt lat="44.03624" lon="0.37689">
        <ele>79</ele>
        <time>2015-09-03T07:15:31Z</time>
      </trkpt>
      <trkpt lat="44.03619" lon="0.377">
        <ele>79</ele>
        <time>2015-09-03T07:15:37Z</time>
      </trkpt>
      <trkpt lat="44.03616" lon="0.37713">
        <ele>79</ele>
        <time>2015-09-03T07:15:46Z</time>
      </trkpt>
      <trkpt lat="44.03612" lon="0.37725">
        <ele>79</ele>
        <time>2015-09-03T07:15:54Z</time>
      </trkpt>
      <trkpt lat="44.03607" lon="0.37737">
        <ele>79</ele>
        <time>2015-09-03T07:16:01Z</time>
      </trkpt>
      <trkpt lat="44.03602" lon="0.37747">
        <ele>75</ele>
        <time>2015-09-03T07:16:09Z</time>
      </trkpt>
      <trkpt lat="44.03599" lon="0.3776">
        <ele>75</ele>
        <time>2015-09-03T07:16:18Z</time>
      </trkpt>
      <trkpt lat="44.03596" lon="0.37771">
        <ele>75</ele>
        <time>2015-09-03T07:16:24Z</time>
      </trkpt>
      <trkpt lat="44.03592" lon="0.37783">
        <ele>75</ele>
        <time>2015-09-03T07:16:32Z</time>
      </trkpt>
      <trkpt lat="44.03587" lon="0.37794">
        <ele>75</ele>
        <time>2015-09-03T07:16:39Z</time>
      </trkpt>
      <trkpt lat="44.03583" lon="0.37806">
        <ele>79</ele>
        <time>2015-09-03T07:16:46Z</time>
      </trkpt>
      <trkpt lat="44.03579" lon="0.37818">
        <ele>79</ele>
        <time>2015-09-03T07:16:54Z</time>
      </trkpt>
      <trkpt lat="44.03574" lon="0.3783">
        <ele>79</ele>
        <time>2015-09-03T07:17:02Z</time>
      </trkpt>
      <trkpt lat="44.03569" lon="0.37842">
        <ele>79</ele>
        <time>2015-09-03T07:17:09Z</time>
      </trkpt>
      <trkpt lat="44.03564" lon="0.37854">
        <ele>79</ele>
        <time>2015-09-03T07:17:18Z</time>
      </trkpt>
      <trkpt lat="44.03558" lon="0.37864">
        <ele>79</ele>
        <time>2015-09-03T07:17:25Z</time>
      </trkpt>
      <trkpt lat="44.03553" lon="0.37875">
        <ele>79</ele>
        <time>2015-09-03T07:17:34Z</time>
      </trkpt>
      <trkpt lat="44.03546" lon="0.37885">
        <ele>79</ele>
        <time>2015-09-03T07:17:43Z</time>
      </trkpt>
      <trkpt lat="44.0354" lon="0.37896">
        <ele>79</ele>
        <time>2015-09-03T07:17:50Z</time>
      </trkpt>
      <trkpt lat="44.03533" lon="0.37905">
        <ele>79</ele>
        <time>2015-09-03T07:17:59Z</time>
      </trkpt>
      <trkpt lat="44.03526" lon="0.37915">
        <ele>79</ele>
        <time>2015-09-03T07:18:08Z</time>
      </trkpt>
      <trkpt lat="44.03519" lon="0.37924">
        <ele>79</ele>
        <time>2015-09-03T07:18:18Z</time>
      </trkpt>
      <trkpt lat="44.03512" lon="0.37934">
        <ele>79</ele>
        <time>2015-09-03T07:18:33Z</time>
      </trkpt>
      <trkpt lat="44.03505" lon="0.37941">
        <ele>75</ele>
        <time>2015-09-03T07:18:42Z</time>
      </trkpt>
      <trkpt lat="44.03495" lon="0.37947">
        <ele>75</ele>
        <time>2015-09-03T07:18:51Z</time>
      </trkpt>
      <trkpt lat="44.03486" lon="0.3795">
        <ele>75</ele>
        <time>2015-09-03T07:18:58Z</time>
      </trkpt>
      <trkpt lat="44.03477" lon="0.37946">
        <ele>75</ele>
        <time>2015-09-03T07:19:06Z</time>
      </trkpt>
      <trkpt lat="44.03469" lon="0.37939">
        <ele>75</ele>
        <time>2015-09-03T07:19:14Z</time>
      </trkpt>
      <trkpt lat="44.03461" lon="0.3793">
        <ele>75</ele>
        <time>2015-09-03T07:19:22Z</time>
      </trkpt>
      <trkpt lat="44.03455" lon="0.37921">
        <ele>75</ele>
        <time>2015-09-03T07:19:32Z</time>
      </trkpt>
      <trkpt lat="44.03447" lon="0.37912">
        <ele>75</ele>
        <time>2015-09-03T07:19:40Z</time>
      </trkpt>
      <trkpt lat="44.03439" lon="0.37905">
        <ele>75</ele>
        <time>2015-09-03T07:19:49Z</time>
      </trkpt>
      <trkpt lat="44.03432" lon="0.37896">
        <ele>75</ele>
        <time>2015-09-03T07:19:57Z</time>
      </trkpt>
      <trkpt lat="44.03425" lon="0.37889">
        <ele>75</ele>
        <time>2015-09-03T07:20:06Z</time>
      </trkpt>
      <trkpt lat="44.03418" lon="0.3788">
        <ele>75</ele>
        <time>2015-09-03T07:20:14Z</time>
      </trkpt>
      <trkpt lat="44.0341" lon="0.37871">
        <ele>75</ele>
        <time>2015-09-03T07:20:21Z</time>
      </trkpt>
      <trkpt lat="44.03403" lon="0.37863">
        <ele>75</ele>
        <time>2015-09-03T07:20:31Z</time>
      </trkpt>
      <trkpt lat="44.03395" lon="0.37854">
        <ele>75</ele>
        <time>2015-09-03T07:20:41Z</time>
      </trkpt>
      <trkpt lat="44.03387" lon="0.37845">
        <ele>75</ele>
        <time>2015-09-03T07:20:50Z</time>
      </trkpt>
      <trkpt lat="44.03379" lon="0.37838">
        <ele>75</ele>
        <time>2015-09-03T07:20:59Z</time>
      </trkpt>
      <trkpt lat="44.03371" lon="0.37831">
        <ele>75</ele>
        <time>2015-09-03T07:21:06Z</time>
      </trkpt>
      <trkpt lat="44.03365" lon="0.37823">
        <ele>75</ele>
        <time>2015-09-03T07:21:14Z</time>
      </trkpt>
      <trkpt lat="44.03358" lon="0.37814">
        <ele>75</ele>
        <time>2015-09-03T07:21:21Z</time>
      </trkpt>
      <trkpt lat="44.03351" lon="0.37806">
        <ele>75</ele>
        <time>2015-09-03T07:21:28Z</time>
      </trkpt>
      <trkpt lat="44.03344" lon="0.37797">
        <ele>76</ele>
        <time>2015-09-03T07:21:36Z</time>
      </trkpt>
      <trkpt lat="44.03337" lon="0.37788">
        <ele>76</ele>
        <time>2015-09-03T07:21:42Z</time>
      </trkpt>
      <trkpt lat="44.0333" lon="0.37778">
        <ele>76</ele>
        <time>2015-09-03T07:21:49Z</time>
      </trkpt>
      <trkpt lat="44.03322" lon="0.37769">
        <ele>76</ele>
        <time>2015-09-03T07:21:58Z</time>
      </trkpt>
      <trkpt lat="44.03315" lon="0.37761">
        <ele>76</ele>
        <time>2015-09-03T07:22:06Z</time>
      </trkpt>
      <trkpt lat="44.03308" lon="0.37752">
        <ele>76</ele>
        <time>2015-09-03T07:22:13Z</time>
      </trkpt>
      <trkpt lat="44.03301" lon="0.37743">
        <ele>76</ele>
        <time>2015-09-03T07:22:22Z</time>
      </trkpt>
      <trkpt lat="44.03294" lon="0.37735">
        <ele>80</ele>
        <time>2015-09-03T07:22:32Z</time>
      </trkpt>
      <trkpt lat="44.03286" lon="0.37727">
        <ele>80</ele>
        <time>2015-09-03T07:22:42Z</time>
      </trkpt>
      <trkpt lat="44.03279" lon="0.3772">
        <ele>80</ele>
        <time>2015-09-03T07:22:50Z</time>
      </trkpt>
      <trkpt lat="44.0327" lon="0.37712">
        <ele>80</ele>
        <time>2015-09-03T07:22:57Z</time>
      </trkpt>
      <trkpt lat="44.03263" lon="0.37703">
        <ele>80</ele>
        <time>2015-09-03T07:23:06Z</time>
      </trkpt>
      <trkpt lat="44.03256" lon="0.37694">
        <ele>80</ele>
        <time>2015-09-03T07:23:14Z</time>
      </trkpt>
      <trkpt lat="44.03249" lon="0.37685">
        <ele>80</ele>
        <time>2015-09-03T07:23:21Z</time>
      </trkpt>
      <trkpt lat="44.03242" lon="0.37675">
        <ele>80</ele>
        <time>2015-09-03T07:23:32Z</time>
      </trkpt>
      <trkpt lat="44.03234" lon="0.37668">
        <ele>80</ele>
        <time>2015-09-03T07:23:41Z</time>
      </trkpt>
      <trkpt lat="44.03226" lon="0.37661">
        <ele>80</ele>
        <time>2015-09-03T07:23:53Z</time>
      </trkpt>
      <trkpt lat="44.03218" lon="0.37653">
        <ele>80</ele>
        <time>2015-09-03T07:24:03Z</time>
      </trkpt>
      <trkpt lat="44.03211" lon="0.37645">
        <ele>80</ele>
        <time>2015-09-03T07:24:14Z</time>
      </trkpt>
      <trkpt lat="44.03203" lon="0.37637">
        <ele>80</ele>
        <time>2015-09-03T07:24:22Z</time>
      </trkpt>
      <trkpt lat="44.03194" lon="0.37631">
        <ele>80</ele>
        <time>2015-09-03T07:24:37Z</time>
      </trkpt>
      <trkpt lat="44.03186" lon="0.37623">
        <ele>80</ele>
        <time>2015-09-03T07:24:46Z</time>
      </trkpt>
      <trkpt lat="44.03178" lon="0.37616">
        <ele>80</ele>
        <time>2015-09-03T07:24:56Z</time>
      </trkpt>
      <trkpt lat="44.03172" lon="0.37606">
        <ele>76</ele>
        <time>2015-09-03T07:25:04Z</time>
      </trkpt>
      <trkpt lat="44.03165" lon="0.37597">
        <ele>76</ele>
        <time>2015-09-03T07:25:11Z</time>
      </trkpt>
      <trkpt lat="44.03157" lon="0.37589">
        <ele>76</ele>
        <time>2015-09-03T07:25:20Z</time>
      </trkpt>
      <trkpt lat="44.0315" lon="0.37579">
        <ele>76</ele>
        <time>2015-09-03T07:25:28Z</time>
      </trkpt>
      <trkpt lat="44.03144" lon="0.37569">
        <ele>76</ele>
        <time>2015-09-03T07:25:39Z</time>
      </trkpt>
      <trkpt lat="44.0314" lon="0.37557">
        <ele>76</ele>
        <time>2015-09-03T07:25:49Z</time>
      </trkpt>
      <trkpt lat="44.03137" lon="0.37545">
        <ele>76</ele>
        <time>2015-09-03T07:25:59Z</time>
      </trkpt>
      <trkpt lat="44.0313" lon="0.37534">
        <ele>76</ele>
        <time>2015-09-03T07:26:08Z</time>
      </trkpt>
      <trkpt lat="44.03124" lon="0.37524">
        <ele>76</ele>
        <time>2015-09-03T07:26:16Z</time>
      </trkpt>
      <trkpt lat="44.03116" lon="0.37515">
        <ele>76</ele>
        <time>2015-09-03T07:26:26Z</time>
      </trkpt>
      <trkpt lat="44.03108" lon="0.37507">
        <ele>80</ele>
        <time>2015-09-03T07:26:35Z</time>
      </trkpt>
      <trkpt lat="44.03101" lon="0.37498">
        <ele>80</ele>
        <time>2015-09-03T07:26:45Z</time>
      </trkpt>
      <trkpt lat="44.03093" lon="0.37506">
        <ele>80</ele>
        <time>2015-09-03T07:26:58Z</time>
      </trkpt>
      <trkpt lat="44.03087" lon="0.37516">
        <ele>80</ele>
        <time>2015-09-03T07:27:07Z</time>
      </trkpt>
      <trkpt lat="44.03082" lon="0.37525">
        <ele>80</ele>
        <time>2015-09-03T07:27:16Z</time>
      </trkpt>
      <trkpt lat="44.03072" lon="0.3753">
        <ele>80</ele>
        <time>2015-09-03T07:27:26Z</time>
      </trkpt>
      <trkpt lat="44.03063" lon="0.3753">
        <ele>80</ele>
        <time>2015-09-03T07:27:37Z</time>
      </trkpt>
      <trkpt lat="44.03054" lon="0.37532">
        <ele>80</ele>
        <time>2015-09-03T07:27:48Z</time>
      </trkpt>
      <trkpt lat="44.03046" lon="0.37541">
        <ele>80</ele>
        <time>2015-09-03T07:27:58Z</time>
      </trkpt>
      <trkpt lat="44.03041" lon="0.37553">
        <ele>80</ele>
        <time>2015-09-03T07:28:07Z</time>
      </trkpt>
      <trkpt lat="44.03038" lon="0.37565">
        <ele>80</ele>
        <time>2015-09-03T07:28:17Z</time>
      </trkpt>
      <trkpt lat="44.03035" lon="0.37576">
        <ele>80</ele>
        <time>2015-09-03T07:28:26Z</time>
      </trkpt>
      <trkpt lat="44.03031" lon="0.37589">
        <ele>80</ele>
        <time>2015-09-03T07:28:38Z</time>
      </trkpt>
      <trkpt lat="44.03027" lon="0.37601">
        <ele>80</ele>
        <time>2015-09-03T07:28:48Z</time>
      </trkpt>
      <trkpt lat="44.03023" lon="0.37613">
        <ele>80</ele>
        <time>2015-09-03T07:28:58Z</time>
      </trkpt>
      <trkpt lat="44.03019" lon="0.37625">
        <ele>80</ele>
        <time>2015-09-03T07:29:07Z</time>
      </trkpt>
      <trkpt lat="44.03014" lon="0.37636">
        <ele>80</ele>
        <time>2015-09-03T07:29:17Z</time>
      </trkpt>
      <trkpt lat="44.03011" lon="0.37649">
        <ele>80</ele>
        <time>2015-09-03T07:29:26Z</time>
      </trkpt>
      <trkpt lat="44.03008" lon="0.37661">
        <ele>80</ele>
        <time>2015-09-03T07:29:34Z</time>
      </trkpt>
      <trkpt lat="44.03004" lon="0.37673">
        <ele>80</ele>
        <time>2015-09-03T07:29:44Z</time>
      </trkpt>
      <trkpt lat="44.03" lon="0.37685">
        <ele>81</ele>
        <time>2015-09-03T07:29:53Z</time>
      </trkpt>
      <trkpt lat="44.02995" lon="0.37696">
        <ele>81</ele>
        <time>2015-09-03T07:30:04Z</time>
      </trkpt>
      <trkpt lat="44.0299" lon="0.37709">
        <ele>81</ele>
        <time>2015-09-03T07:30:16Z</time>
      </trkpt>
      <trkpt lat="44.02987" lon="0.3772">
        <ele>81</ele>
        <time>2015-09-03T07:30:26Z</time>
      </trkpt>
      <trkpt lat="44.02983" lon="0.37732">
        <ele>81</ele>
        <time>2015-09-03T07:30:34Z</time>
      </trkpt>
      <trkpt lat="44.02978" lon="0.37744">
        <ele>81</ele>
        <time>2015-09-03T07:30:45Z</time>
      </trkpt>
      <trkpt lat="44.02974" lon="0.37756">
        <ele>81</ele>
        <time>2015-09-03T07:30:55Z</time>
      </trkpt>
      <trkpt lat="44.02969" lon="0.37769">
        <ele>81</ele>
        <time>2015-09-03T07:31:06Z</time>
      </trkpt>
      <trkpt lat="44.02966" lon="0.37781">
        <ele>81</ele>
        <time>2015-09-03T07:31:15Z</time>
      </trkpt>
      <trkpt lat="44.02963" lon="0.37793">
        <ele>81</ele>
        <time>2015-09-03T07:31:22Z</time>
      </trkpt>
      <trkpt lat="44.02958" lon="0.37805">
        <ele>81</ele>
        <time>2015-09-03T07:31:32Z</time>
      </trkpt>
      <trkpt lat="44.02956" lon="0.37817">
        <ele>81</ele>
        <time>2015-09-03T07:31:40Z</time>
      </trkpt>
      <trkpt lat="44.02964" lon="0.37826">
        <ele>81</ele>
        <time>2015-09-03T07:31:50Z</time>
      </trkpt>
      <trkpt lat="44.02972" lon="0.37834">
        <ele>81</ele>
        <time>2015-09-03T07:31:59Z</time>
      </trkpt>
      <trkpt lat="44.02979" lon="0.3784">
        <ele>81</ele>
        <time>2015-09-03T07:32:06Z</time>
      </trkpt>
      <trkpt lat="44.02988" lon="0.37847">
        <ele>81</ele>
        <time>2015-09-03T07:32:16Z</time>
      </trkpt>
      <trkpt lat="44.02996" lon="0.37854">
        <ele>84</ele>
        <time>2015-09-03T07:32:24Z</time>
      </trkpt>
      <trkpt lat="44.03004" lon="0.3786">
        <ele>84</ele>
        <time>2015-09-03T07:32:34Z</time>
      </trkpt>
      <trkpt lat="44.03012" lon="0.37866">
        <ele>84</ele>
        <time>2015-09-03T07:32:42Z</time>
      </trkpt>
      <trkpt lat="44.0302" lon="0.37872">
        <ele>84</ele>
        <time>2015-09-03T07:32:49Z</time>
      </trkpt>
      <trkpt lat="44.03028" lon="0.37878">
        <ele>84</ele>
        <time>2015-09-03T07:32:58Z</time>
      </trkpt>
      <trkpt lat="44.03037" lon="0.37885">
        <ele>84</ele>
        <time>2015-09-03T07:33:07Z</time>
      </trkpt>
      <trkpt lat="44.03045" lon="0.37893">
        <ele>84</ele>
        <time>2015-09-03T07:33:16Z</time>
      </trkpt>
      <trkpt lat="44.03053" lon="0.379">
        <ele>84</ele>
        <time>2015-09-03T07:33:25Z</time>
      </trkpt>
      <trkpt lat="44.03061" lon="0.37908">
        <ele>84</ele>
        <time>2015-09-03T07:33:34Z</time>
      </trkpt>
      <trkpt lat="44.03069" lon="0.37915">
        <ele>84</ele>
        <time>2015-09-03T07:33:44Z</time>
      </trkpt>
      <trkpt lat="44.03077" lon="0.37923">
        <ele>84</ele>
        <time>2015-09-03T07:33:52Z</time>
      </trkpt>
      <trkpt lat="44.03085" lon="0.3793">
        <ele>84</ele>
        <time>2015-09-03T07:34:02Z</time>
      </trkpt>
      <trkpt lat="44.03093" lon="0.37936">
        <ele>84</ele>
        <time>2015-09-03T07:34:10Z</time>
      </trkpt>
      <trkpt lat="44.03101" lon="0.37942">
        <ele>84</ele>
        <time>2015-09-03T07:34:17Z</time>
      </trkpt>
      <trkpt lat="44.03109" lon="0.37949">
        <ele>84</ele>
        <time>2015-09-03T07:34:26Z</time>
      </trkpt>
      <trkpt lat="44.03116" lon="0.37957">
        <ele>84</ele>
        <time>2015-09-03T07:34:35Z</time>
      </trkpt>
      <trkpt lat="44.03125" lon="0.37964">
        <ele>84</ele>
        <time>2015-09-03T07:34:44Z</time>
      </trkpt>
      <trkpt lat="44.03132" lon="0.37973">
        <ele>84</ele>
        <time>2015-09-03T07:34:53Z</time>
      </trkpt>
      <trkpt lat="44.0314" lon="0.37979">
        <ele>84</ele>
        <time>2015-09-03T07:35:05Z</time>
      </trkpt>
      <trkpt lat="44.03148" lon="0.37987">
        <ele>84</ele>
        <time>2015-09-03T07:35:15Z</time>
      </trkpt>
      <trkpt lat="44.03152" lon="0.37998">
        <ele>86</ele>
        <time>2015-09-03T07:35:31Z</time>
      </trkpt>
      <trkpt lat="44.03149" lon="0.3801">
        <ele>86</ele>
        <time>2015-09-03T07:35:45Z</time>
      </trkpt>
      <trkpt lat="44.03146" lon="0.38022">
        <ele>86</ele>
        <time>2015-09-03T07:35:55Z</time>
      </trkpt>
      <trkpt lat="44.03141" lon="0.38034">
        <ele>86</ele>
        <time>2015-09-03T07:36:04Z</time>
      </trkpt>
      <trkpt lat="44.03137" lon="0.38046">
        <ele>86</ele>
        <time>2015-09-03T07:36:15Z</time>
      </trkpt>
      <trkpt lat="44.03133" lon="0.38058">
        <ele>86</ele>
        <time>2015-09-03T07:36:24Z</time>
      </trkpt>
      <trkpt lat="44.03129" lon="0.3807">
        <ele>86</ele>
        <time>2015-09-03T07:36:35Z</time>
      </trkpt>
      <trkpt lat="44.03123" lon="0.38081">
        <ele>86</ele>
        <time>2015-09-03T07:36:44Z</time>
      </trkpt>
      <trkpt lat="44.03117" lon="0.38089">
        <ele>86</ele>
        <time>2015-09-03T07:36:52Z</time>
      </trkpt>
      <trkpt lat="44.03111" lon="0.38101">
        <ele>86</ele>
        <time>2015-09-03T07:37:03Z</time>
      </trkpt>
      <trkpt lat="44.03107" lon="0.38113">
        <ele>86</ele>
        <time>2015-09-03T07:37:12Z</time>
      </trkpt>
      <trkpt lat="44.03102" lon="0.38125">
        <ele>86</ele>
        <time>2015-09-03T07:37:22Z</time>
      </trkpt>
      <trkpt lat="44.03098" lon="0.38137">
        <ele>86</ele>
        <time>2015-09-03T07:37:30Z</time>
      </trkpt>
      <trkpt lat="44.03095" lon="0.38149">
        <ele>86</ele>
        <time>2015-09-03T07:37:39Z</time>
      </trkpt>
      <trkpt lat="44.03091" lon="0.38161">
        <ele>86</ele>
        <time>2015-09-03T07:37:48Z</time>
      </trkpt>
      <trkpt lat="44.03087" lon="0.38173">
        <ele>86</ele>
        <time>2015-09-03T07:37:56Z</time>
      </trkpt>
      <trkpt lat="44.03083" lon="0.38186">
        <ele>90</ele>
        <time>2015-09-03T07:38:06Z</time>
      </trkpt>
      <trkpt lat="44.03078" lon="0.38197">
        <ele>90</ele>
        <time>2015-09-03T07:38:27Z</time>
      </trkpt>
      <trkpt lat="44.03074" lon="0.38209">
        <ele>90</ele>
        <time>2015-09-03T07:38:36Z</time>
      </trkpt>
      <trkpt lat="44.0307" lon="0.38222">
        <ele>90</ele>
        <time>2015-09-03T07:38:46Z</time>
      </trkpt>
      <trkpt lat="44.03067" lon="0.38235">
        <ele>90</ele>
        <time>2015-09-03T07:38:57Z</time>
      </trkpt>
      <trkpt lat="44.03062" lon="0.38247">
        <ele>90</ele>
        <time>2015-09-03T07:39:07Z</time>
      </trkpt>
      <trkpt lat="44.03059" lon="0.3826">
        <ele>90</ele>
        <time>2015-09-03T07:39:16Z</time>
      </trkpt>
      <trkpt lat="44.03055" lon="0.38271">
        <ele>90</ele>
        <time>2015-09-03T07:39:23Z</time>
      </trkpt>
      <trkpt lat="44.03051" lon="0.38284">
        <ele>90</ele>
        <time>2015-09-03T07:39:33Z</time>
      </trkpt>
      <trkpt lat="44.03047" lon="0.38296">
        <ele>90</ele>
        <time>2015-09-03T07:39:42Z</time>
      </trkpt>
      <trkpt lat="44.03043" lon="0.38307">
        <ele>94</ele>
        <time>2015-09-03T07:40:32Z</time>
      </trkpt>
      <trkpt lat="44.03039" lon="0.38319">
        <ele>94</ele>
        <time>2015-09-03T07:40:43Z</time>
      </trkpt>
      <trkpt lat="44.03036" lon="0.38332">
        <ele>94</ele>
        <time>2015-09-03T07:40:52Z</time>
      </trkpt>
      <trkpt lat="44.03034" lon="0.38344">
        <ele>94</ele>
        <time>2015-09-03T07:41:02Z</time>
      </trkpt>
      <trkpt lat="44.0303" lon="0.38356">
        <ele>94</ele>
        <time>2015-09-03T07:41:11Z</time>
      </trkpt>
      <trkpt lat="44.03026" lon="0.38368">
        <ele>94</ele>
        <time>2015-09-03T07:41:21Z</time>
      </trkpt>
      <trkpt lat="44.03022" lon="0.38379">
        <ele>94</ele>
        <time>2015-09-03T07:41:31Z</time>
      </trkpt>
      <trkpt lat="44.03018" lon="0.38391">
        <ele>94</ele>
        <time>2015-09-03T07:41:41Z</time>
      </trkpt>
      <trkpt lat="44.03014" lon="0.38403">
        <ele>94</ele>
        <time>2015-09-03T07:41:50Z</time>
      </trkpt>
      <trkpt lat="44.0301" lon="0.38415">
        <ele>94</ele>
        <time>2015-09-03T07:41:59Z</time>
      </trkpt>
      <trkpt lat="44.03007" lon="0.38427">
        <ele>94</ele>
        <time>2015-09-03T07:42:08Z</time>
      </trkpt>
      <trkpt lat="44.03003" lon="0.38438">
        <ele>94</ele>
        <time>2015-09-03T07:42:16Z</time>
      </trkpt>
      <trkpt lat="44.03" lon="0.38451">
        <ele>94</ele>
        <time>2015-09-03T07:42:26Z</time>
      </trkpt>
      <trkpt lat="44.02996" lon="0.38462">
        <ele>94</ele>
        <time>2015-09-03T07:42:36Z</time>
      </trkpt>
      <trkpt lat="44.0299" lon="0.38473">
        <ele>94</ele>
        <time>2015-09-03T07:42:46Z</time>
      </trkpt>
      <trkpt lat="44.02984" lon="0.38484">
        <ele>98</ele>
        <time>2015-09-03T07:42:54Z</time>
      </trkpt>
      <trkpt lat="44.02979" lon="0.38493">
        <ele>98</ele>
        <time>2015-09-03T07:43:03Z</time>
      </trkpt>
      <trkpt lat="44.02973" lon="0.38503">
        <ele>98</ele>
        <time>2015-09-03T07:43:13Z</time>
      </trkpt>
      <trkpt lat="44.02967" lon="0.38514">
        <ele>98</ele>
        <time>2015-09-03T07:43:22Z</time>
      </trkpt>
      <trkpt lat="44.02962" lon="0.38524">
        <ele>98</ele>
        <time>2015-09-03T07:43:31Z</time>
      </trkpt>
      <trkpt lat="44.02955" lon="0.38534">
        <ele>98</ele>
        <time>2015-09-03T07:43:41Z</time>
      </trkpt>
      <trkpt lat="44.02948" lon="0.38544">
        <ele>98</ele>
        <time>2015-09-03T07:43:50Z</time>
      </trkpt>
      <trkpt lat="44.02939" lon="0.3855">
        <ele>98</ele>
        <time>2015-09-03T07:44:04Z</time>
      </trkpt>
      <trkpt lat="44.0293" lon="0.38552">
        <ele>94</ele>
        <time>2015-09-03T07:44:13Z</time>
      </trkpt>
      <trkpt lat="44.02921" lon="0.38554">
        <ele>94</ele>
        <time>2015-09-03T07:44:23Z</time>
      </trkpt>
      <trkpt lat="44.02911" lon="0.38555">
        <ele>94</ele>
        <time>2015-09-03T07:44:31Z</time>
      </trkpt>
      <trkpt lat="44.02901" lon="0.38559">
        <ele>94</ele>
        <time>2015-09-03T07:44:42Z</time>
      </trkpt>
      <trkpt lat="44.02894" lon="0.38567">
        <ele>94</ele>
        <time>2015-09-03T07:44:50Z</time>
      </trkpt>
      <trkpt lat="44.02886" lon="0.38575">
        <ele>94</ele>
        <time>2015-09-03T07:45:00Z</time>
      </trkpt>
      <trkpt lat="44.02879" lon="0.38583">
        <ele>94</ele>
        <time>2015-09-03T07:45:11Z</time>
      </trkpt>
      <trkpt lat="44.02871" lon="0.38591">
        <ele>94</ele>
        <time>2015-09-03T07:45:21Z</time>
      </trkpt>
      <trkpt lat="44.02863" lon="0.386">
        <ele>94</ele>
        <time>2015-09-03T07:45:32Z</time>
      </trkpt>
      <trkpt lat="44.02856" lon="0.38609">
        <ele>94</ele>
        <time>2015-09-03T07:45:41Z</time>
      </trkpt>
      <trkpt lat="44.02855" lon="0.38622">
        <ele>94</ele>
        <time>2015-09-03T07:45:55Z</time>
      </trkpt>
      <trkpt lat="44.02861" lon="0.38633">
        <ele>94</ele>
        <time>2015-09-03T07:46:05Z</time>
      </trkpt>
      <trkpt lat="44.02866" lon="0.38643">
        <ele>94</ele>
        <time>2015-09-03T07:46:14Z</time>
      </trkpt>
      <trkpt lat="44.02874" lon="0.38652">
        <ele>94</ele>
        <time>2015-09-03T07:46:23Z</time>
      </trkpt>
      <trkpt lat="44.02881" lon="0.38661">
        <ele>94</ele>
        <time>2015-09-03T07:46:33Z</time>
      </trkpt>
      <trkpt lat="44.02887" lon="0.3867">
        <ele>94</ele>
        <time>2015-09-03T07:46:41Z</time>
      </trkpt>
      <trkpt lat="44.02894" lon="0.3868">
        <ele>94</ele>
        <time>2015-09-03T07:46:51Z</time>
      </trkpt>
      <trkpt lat="44.02901" lon="0.38689">
        <ele>90</ele>
        <time>2015-09-03T07:47:00Z</time>
      </trkpt>
      <trkpt lat="44.02908" lon="0.38697">
        <ele>90</ele>
        <time>2015-09-03T07:47:10Z</time>
      </trkpt>
      <trkpt lat="44.02915" lon="0.38707">
        <ele>90</ele>
        <time>2015-09-03T07:47:20Z</time>
      </trkpt>
      <trkpt lat="44.02922" lon="0.38716">
        <ele>90</ele>
        <time>2015-09-03T07:47:31Z</time>
      </trkpt>
      <trkpt lat="44.02929" lon="0.38725">
        <ele>90</ele>
        <time>2015-09-03T07:47:42Z</time>
      </trkpt>
      <trkpt lat="44.02936" lon="0.38734">
        <ele>90</ele>
        <time>2015-09-03T07:47:50Z</time>
      </trkpt>
      <trkpt lat="44.02944" lon="0.38743">
        <ele>86</ele>
        <time>2015-09-03T07:48:00Z</time>
      </trkpt>
      <trkpt lat="44.02951" lon="0.3875">
        <ele>86</ele>
        <time>2015-09-03T07:48:08Z</time>
      </trkpt>
      <trkpt lat="44.02959" lon="0.38758">
        <ele>86</ele>
        <time>2015-09-03T07:48:19Z</time>
      </trkpt>
      <trkpt lat="44.02967" lon="0.38766">
        <ele>86</ele>
        <time>2015-09-03T07:48:28Z</time>
      </trkpt>
      <trkpt lat="44.02974" lon="0.38774">
        <ele>86</ele>
        <time>2015-09-03T07:48:37Z</time>
      </trkpt>
      <trkpt lat="44.02982" lon="0.38782">
        <ele>86</ele>
        <time>2015-09-03T07:48:46Z</time>
      </trkpt>
      <trkpt lat="44.0299" lon="0.38791">
        <ele>82</ele>
        <time>2015-09-03T07:48:54Z</time>
      </trkpt>
      <trkpt lat="44.02997" lon="0.388">
        <ele>82</ele>
        <time>2015-09-03T07:49:05Z</time>
      </trkpt>
      <trkpt lat="44.03005" lon="0.38809">
        <ele>82</ele>
        <time>2015-09-03T07:49:13Z</time>
      </trkpt>
      <trkpt lat="44.03012" lon="0.38818">
        <ele>82</ele>
        <time>2015-09-03T07:49:24Z</time>
      </trkpt>
      <trkpt lat="44.0302" lon="0.38826">
        <ele>82</ele>
        <time>2015-09-03T07:49:33Z</time>
      </trkpt>
      <trkpt lat="44.03027" lon="0.38834">
        <ele>82</ele>
        <time>2015-09-03T07:49:41Z</time>
      </trkpt>
      <trkpt lat="44.03034" lon="0.38843">
        <ele>82</ele>
        <time>2015-09-03T07:49:51Z</time>
      </trkpt>
      <trkpt lat="44.03042" lon="0.38851">
        <ele>82</ele>
        <time>2015-09-03T07:50:00Z</time>
      </trkpt>
      <trkpt lat="44.03049" lon="0.3886">
        <ele>82</ele>
        <time>2015-09-03T07:50:10Z</time>
      </trkpt>
      <trkpt lat="44.03056" lon="0.38869">
        <ele>82</ele>
        <time>2015-09-03T07:50:18Z</time>
      </trkpt>
      <trkpt lat="44.03064" lon="0.38877">
        <ele>82</ele>
        <time>2015-09-03T07:50:28Z</time>
      </trkpt>
      <trkpt lat="44.03072" lon="0.38884">
        <ele>82</ele>
        <time>2015-09-03T07:50:38Z</time>
      </trkpt>
      <trkpt lat="44.0308" lon="0.38891">
        <ele>82</ele>
        <time>2015-09-03T07:50:46Z</time>
      </trkpt>
      <trkpt lat="44.03087" lon="0.389">
        <ele>82</ele>
        <time>2015-09-03T07:50:57Z</time>
      </trkpt>
      <trkpt lat="44.03092" lon="0.38912">
        <ele>82</ele>
        <time>2015-09-03T07:51:06Z</time>
      </trkpt>
      <trkpt lat="44.03093" lon="0.38925">
        <ele>82</ele>
        <time>2015-09-03T07:51:16Z</time>
      </trkpt>
      <trkpt lat="44.03089" lon="0.38937">
        <ele>82</ele>
        <time>2015-09-03T07:51:27Z</time>
      </trkpt>
      <trkpt lat="44.03083" lon="0.38948">
        <ele>82</ele>
        <time>2015-09-03T07:51:38Z</time>
      </trkpt>
      <trkpt lat="44.03079" lon="0.38959">
        <ele>82</ele>
        <time>2015-09-03T07:51:46Z</time>
      </trkpt>
      <trkpt lat="44.03074" lon="0.3897">
        <ele>78</ele>
        <time>2015-09-03T07:51:55Z</time>
      </trkpt>
      <trkpt lat="44.03068" lon="0.38981">
        <ele>78</ele>
        <time>2015-09-03T07:52:03Z</time>
      </trkpt>
      <trkpt lat="44.03062" lon="0.38992">
        <ele>78</ele>
        <time>2015-09-03T07:52:11Z</time>
      </trkpt>
      <trkpt lat="44.03056" lon="0.39002">
        <ele>78</ele>
        <time>2015-09-03T07:52:20Z</time>
      </trkpt>
      <trkpt lat="44.0305" lon="0.39012">
        <ele>78</ele>
        <time>2015-09-03T07:52:29Z</time>
      </trkpt>
      <trkpt lat="44.03043" lon="0.39022">
        <ele>78</ele>
        <time>2015-09-03T07:52:37Z</time>
      </trkpt>
      <trkpt lat="44.03037" lon="0.39032">
        <ele>78</ele>
        <time>2015-09-03T07:52:46Z</time>
      </trkpt>
      <trkpt lat="44.0303" lon="0.39043">
        <ele>78</ele>
        <time>2015-09-03T07:52:53Z</time>
      </trkpt>
      <trkpt lat="44.03025" lon="0.39053">
        <ele>78</ele>
        <time>2015-09-03T07:53:02Z</time>
      </trkpt>
      <trkpt lat="44.03019" lon="0.39065">
        <ele>78</ele>
        <time>2015-09-03T07:53:10Z</time>
      </trkpt>
      <trkpt lat="44.03013" lon="0.39075">
        <ele>78</ele>
        <time>2015-09-03T07:53:16Z</time>
      </trkpt>
      <trkpt lat="44.03007" lon="0.39086">
        <ele>78</ele>
        <time>2015-09-03T07:53:26Z</time>
      </trkpt>
      <trkpt lat="44.03001" lon="0.39095">
        <ele>78</ele>
        <time>2015-09-03T07:53:35Z</time>
      </trkpt>
      <trkpt lat="44.02993" lon="0.39103">
        <ele>78</ele>
        <time>2015-09-03T07:53:44Z</time>
      </trkpt>
      <trkpt lat="44.02985" lon="0.3911">
        <ele>78</ele>
        <time>2015-09-03T07:53:52Z</time>
      </trkpt>
      <trkpt lat="44.02979" lon="0.3912">
        <ele>78</ele>
        <time>2015-09-03T07:53:59Z</time>
      </trkpt>
      <trkpt lat="44.02972" lon="0.3913">
        <ele>78</ele>
        <time>2015-09-03T07:54:08Z</time>
      </trkpt>
      <trkpt lat="44.02966" lon="0.3914">
        <ele>78</ele>
        <time>2015-09-03T07:54:16Z</time>
      </trkpt>
      <trkpt lat="44.02961" lon="0.39151">
        <ele>78</ele>
        <time>2015-09-03T07:54:23Z</time>
      </trkpt>
      <trkpt lat="44.02956" lon="0.39162">
        <ele>78</ele>
        <time>2015-09-03T07:54:33Z</time>
      </trkpt>
      <trkpt lat="44.02951" lon="0.39173">
        <ele>78</ele>
        <time>2015-09-03T07:54:41Z</time>
      </trkpt>
      <trkpt lat="44.02945" lon="0.39184">
        <ele>78</ele>
        <time>2015-09-03T07:54:51Z</time>
      </trkpt>
      <trkpt lat="44.0294" lon="0.39195">
        <ele>78</ele>
        <time>2015-09-03T07:54:59Z</time>
      </trkpt>
      <trkpt lat="44.02934" lon="0.39206">
        <ele>78</ele>
        <time>2015-09-03T07:55:07Z</time>
      </trkpt>
      <trkpt lat="44.02927" lon="0.39217">
        <ele>78</ele>
        <time>2015-09-03T07:55:17Z</time>
      </trkpt>
      <trkpt lat="44.02921" lon="0.39228">
        <ele>78</ele>
        <time>2015-09-03T07:55:25Z</time>
      </trkpt>
      <trkpt lat="44.02918" lon="0.3924">
        <ele>78</ele>
        <time>2015-09-03T07:55:33Z</time>
      </trkpt>
      <trkpt lat="44.02916" lon="0.39252">
        <ele>75</ele>
        <time>2015-09-03T07:55:41Z</time>
      </trkpt>
      <trkpt lat="44.02909" lon="0.39264">
        <ele>75</ele>
        <time>2015-09-03T07:55:47Z</time>
      </trkpt>
      <trkpt lat="44.02903" lon="0.39273">
        <ele>75</ele>
        <time>2015-09-03T07:55:56Z</time>
      </trkpt>
      <trkpt lat="44.02898" lon="0.39286">
        <ele>75</ele>
        <time>2015-09-03T07:56:05Z</time>
      </trkpt>
      <trkpt lat="44.02894" lon="0.39298">
        <ele>75</ele>
        <time>2015-09-03T07:56:13Z</time>
      </trkpt>
      <trkpt lat="44.02888" lon="0.39308">
        <ele>75</ele>
        <time>2015-09-03T07:56:22Z</time>
      </trkpt>
      <trkpt lat="44.02882" lon="0.39318">
        <ele>75</ele>
        <time>2015-09-03T07:56:32Z</time>
      </trkpt>
      <trkpt lat="44.02876" lon="0.39327">
        <ele>70</ele>
        <time>2015-09-03T07:56:43Z</time>
      </trkpt>
      <trkpt lat="44.02869" lon="0.39337">
        <ele>70</ele>
        <time>2015-09-03T07:56:52Z</time>
      </trkpt>
      <trkpt lat="44.02862" lon="0.39346">
        <ele>70</ele>
        <time>2015-09-03T07:57:02Z</time>
      </trkpt>
      <trkpt lat="44.02856" lon="0.39355">
        <ele>70</ele>
        <time>2015-09-03T07:57:11Z</time>
      </trkpt>
      <trkpt lat="44.02848" lon="0.39365">
        <ele>65</ele>
        <time>2015-09-03T07:57:19Z</time>
      </trkpt>
      <trkpt lat="44.02843" lon="0.39376">
        <ele>65</ele>
        <time>2015-09-03T07:57:29Z</time>
      </trkpt>
      <trkpt lat="44.02845" lon="0.3939">
        <ele>65</ele>
        <time>2015-09-03T07:57:37Z</time>
      </trkpt>
      <trkpt lat="44.02847" lon="0.39402">
        <ele>65</ele>
        <time>2015-09-03T07:57:47Z</time>
      </trkpt>
      <trkpt lat="44.02848" lon="0.39415">
        <ele>60</ele>
        <time>2015-09-03T07:57:55Z</time>
      </trkpt>
      <trkpt lat="44.02851" lon="0.39428">
        <ele>60</ele>
        <time>2015-09-03T07:58:03Z</time>
      </trkpt>
      <trkpt lat="44.02854" lon="0.39441">
        <ele>60</ele>
        <time>2015-09-03T07:58:13Z</time>
      </trkpt>
      <trkpt lat="44.02858" lon="0.39453">
        <ele>60</ele>
        <time>2015-09-03T07:58:21Z</time>
      </trkpt>
      <trkpt lat="44.02863" lon="0.39465">
        <ele>60</ele>
        <time>2015-09-03T07:58:31Z</time>
      </trkpt>
      <trkpt lat="44.0287" lon="0.39474">
        <ele>60</ele>
        <time>2015-09-03T07:58:40Z</time>
      </trkpt>
      <trkpt lat="44.0288" lon="0.39474">
        <ele>60</ele>
        <time>2015-09-03T07:58:50Z</time>
      </trkpt>
      <trkpt lat="44.0289" lon="0.39471">
        <ele>60</ele>
        <time>2015-09-03T07:59:00Z</time>
      </trkpt>
      <trkpt lat="44.02899" lon="0.39467">
        <ele>60</ele>
        <time>2015-09-03T07:59:15Z</time>
      </trkpt>
      <trkpt lat="44.02908" lon="0.39465">
        <ele>60</ele>
        <time>2015-09-03T07:59:25Z</time>
      </trkpt>
      <trkpt lat="44.02917" lon="0.3946">
        <ele>60</ele>
        <time>2015-09-03T07:59:33Z</time>
      </trkpt>
      <trkpt lat="44.02926" lon="0.39459">
        <ele>60</ele>
        <time>2015-09-03T07:59:42Z</time>
      </trkpt>
      <trkpt lat="44.02925" lon="0.39472">
        <ele>60</ele>
        <time>2015-09-03T08:00:01Z</time>
      </trkpt>
      <trkpt lat="44.02918" lon="0.39481">
        <ele>60</ele>
        <time>2015-09-03T08:00:10Z</time>
      </trkpt>
      <trkpt lat="44.02911" lon="0.3949">
        <ele>60</ele>
        <time>2015-09-03T08:00:20Z</time>
      </trkpt>
      <trkpt lat="44.02904" lon="0.39499">
        <ele>60</ele>
        <time>2015-09-03T08:00:28Z</time>
      </trkpt>
      <trkpt lat="44.02898" lon="0.39508">
        <ele>60</ele>
        <time>2015-09-03T08:00:35Z</time>
      </trkpt>
      <trkpt lat="44.0289" lon="0.39517">
        <ele>62</ele>
        <time>2015-09-03T08:00:45Z</time>
      </trkpt>
      <trkpt lat="44.02882" lon="0.39526">
        <ele>62</ele>
        <time>2015-09-03T08:00:53Z</time>
      </trkpt>
      <trkpt lat="44.02875" lon="0.39535">
        <ele>62</ele>
        <time>2015-09-03T08:01:02Z</time>
      </trkpt>
      <trkpt lat="44.02868" lon="0.39542">
        <ele>62</ele>
        <time>2015-09-03T08:01:12Z</time>
      </trkpt>
      <trkpt lat="44.02861" lon="0.39551">
        <ele>62</ele>
        <time>2015-09-03T08:01:19Z</time>
      </trkpt>
      <trkpt lat="44.02852" lon="0.39558">
        <ele>62</ele>
        <time>2015-09-03T08:01:27Z</time>
      </trkpt>
      <trkpt lat="44.02843" lon="0.39565">
        <ele>62</ele>
        <time>2015-09-03T08:01:35Z</time>
      </trkpt>
      <trkpt lat="44.02834" lon="0.3957">
        <ele>67</ele>
        <time>2015-09-03T08:01:42Z</time>
      </trkpt>
      <trkpt lat="44.02825" lon="0.39573">
        <ele>67</ele>
        <time>2015-09-03T08:01:52Z</time>
      </trkpt>
      <trkpt lat="44.02815" lon="0.39576">
        <ele>67</ele>
        <time>2015-09-03T08:02:01Z</time>
      </trkpt>
      <trkpt lat="44.02805" lon="0.39576">
        <ele>67</ele>
        <time>2015-09-03T08:02:08Z</time>
      </trkpt>
      <trkpt lat="44.02796" lon="0.39575">
        <ele>67</ele>
        <time>2015-09-03T08:02:16Z</time>
      </trkpt>
      <trkpt lat="44.02786" lon="0.39576">
        <ele>67</ele>
        <time>2015-09-03T08:02:23Z</time>
      </trkpt>
      <trkpt lat="44.02777" lon="0.39579">
        <ele>67</ele>
        <time>2015-09-03T08:02:31Z</time>
      </trkpt>
      <trkpt lat="44.02769" lon="0.39585">
        <ele>67</ele>
        <time>2015-09-03T08:02:39Z</time>
      </trkpt>
      <trkpt lat="44.02761" lon="0.39594">
        <ele>67</ele>
        <time>2015-09-03T08:02:46Z</time>
      </trkpt>
      <trkpt lat="44.02755" lon="0.39604">
        <ele>72</ele>
        <time>2015-09-03T08:02:56Z</time>
      </trkpt>
      <trkpt lat="44.0275" lon="0.39617">
        <ele>72</ele>
        <time>2015-09-03T08:03:05Z</time>
      </trkpt>
      <trkpt lat="44.02745" lon="0.39629">
        <ele>72</ele>
        <time>2015-09-03T08:03:13Z</time>
      </trkpt>
      <trkpt lat="44.0274" lon="0.3964">
        <ele>72</ele>
        <time>2015-09-03T08:03:23Z</time>
      </trkpt>
      <trkpt lat="44.02735" lon="0.3965">
        <ele>72</ele>
        <time>2015-09-03T08:03:30Z</time>
      </trkpt>
      <trkpt lat="44.02729" lon="0.39662">
        <ele>72</ele>
        <time>2015-09-03T08:03:40Z</time>
      </trkpt>
      <trkpt lat="44.02723" lon="0.39672">
        <ele>72</ele>
        <time>2015-09-03T08:03:49Z</time>
      </trkpt>
      <trkpt lat="44.02716" lon="0.39682">
        <ele>72</ele>
        <time>2015-09-03T08:03:57Z</time>
      </trkpt>
      <trkpt lat="44.0271" lon="0.39692">
        <ele>72</ele>
        <time>2015-09-03T08:04:06Z</time>
      </trkpt>
      <trkpt lat="44.02704" lon="0.39703">
        <ele>79</ele>
        <time>2015-09-03T08:04:13Z</time>
      </trkpt>
      <trkpt lat="44.02697" lon="0.39712">
        <ele>79</ele>
        <time>2015-09-03T08:04:23Z</time>
      </trkpt>
      <trkpt lat="44.02691" lon="0.39722">
        <ele>79</ele>
        <time>2015-09-03T08:04:31Z</time>
      </trkpt>
      <trkpt lat="44.02684" lon="0.39732">
        <ele>79</ele>
        <time>2015-09-03T08:04:38Z</time>
      </trkpt>
      <trkpt lat="44.02679" lon="0.39742">
        <ele>79</ele>
        <time>2015-09-03T08:04:46Z</time>
      </trkpt>
      <trkpt lat="44.02673" lon="0.39751">
        <ele>79</ele>
        <time>2015-09-03T08:04:53Z</time>
      </trkpt>
      <trkpt lat="44.02666" lon="0.39761">
        <ele>79</ele>
        <time>2015-09-03T08:05:00Z</time>
      </trkpt>
      <trkpt lat="44.02659" lon="0.39769">
        <ele>79</ele>
        <time>2015-09-03T08:05:09Z</time>
      </trkpt>
      <trkpt lat="44.02651" lon="0.39775">
        <ele>83</ele>
        <time>2015-09-03T08:05:18Z</time>
      </trkpt>
      <trkpt lat="44.02642" lon="0.39778">
        <ele>83</ele>
        <time>2015-09-03T08:05:25Z</time>
      </trkpt>
      <trkpt lat="44.02632" lon="0.3978">
        <ele>83</ele>
        <time>2015-09-03T08:05:35Z</time>
      </trkpt>
      <trkpt lat="44.02622" lon="0.3978">
        <ele>83</ele>
        <time>2015-09-03T08:05:43Z</time>
      </trkpt>
      <trkpt lat="44.02612" lon="0.3978">
        <ele>83</ele>
        <time>2015-09-03T08:05:53Z</time>
      </trkpt>
      <trkpt lat="44.02603" lon="0.39783">
        <ele>83</ele>
        <time>2015-09-03T08:06:01Z</time>
      </trkpt>
      <trkpt lat="44.02595" lon="0.39787">
        <ele>87</ele>
        <time>2015-09-03T08:06:08Z</time>
      </trkpt>
      <trkpt lat="44.02587" lon="0.39795">
        <ele>87</ele>
        <time>2015-09-03T08:06:17Z</time>
      </trkpt>
      <trkpt lat="44.02578" lon="0.39803">
        <ele>87</ele>
        <time>2015-09-03T08:06:25Z</time>
      </trkpt>
      <trkpt lat="44.02571" lon="0.39811">
        <ele>87</ele>
        <time>2015-09-03T08:06:34Z</time>
      </trkpt>
      <trkpt lat="44.02563" lon="0.3982">
        <ele>87</ele>
        <time>2015-09-03T08:06:42Z</time>
      </trkpt>
      <trkpt lat="44.02557" lon="0.39829">
        <ele>87</ele>
        <time>2015-09-03T08:06:49Z</time>
      </trkpt>
      <trkpt lat="44.02551" lon="0.3984">
        <ele>87</ele>
        <time>2015-09-03T08:06:59Z</time>
      </trkpt>
      <trkpt lat="44.02545" lon="0.39851">
        <ele>87</ele>
        <time>2015-09-03T08:07:07Z</time>
      </trkpt>
      <trkpt lat="44.0254" lon="0.39863">
        <ele>87</ele>
        <time>2015-09-03T08:07:16Z</time>
      </trkpt>
      <trkpt lat="44.02536" lon="0.39874">
        <ele>87</ele>
        <time>2015-09-03T08:07:24Z</time>
      </trkpt>
      <trkpt lat="44.02531" lon="0.39886">
        <ele>87</ele>
        <time>2015-09-03T08:07:30Z</time>
      </trkpt>
      <trkpt lat="44.02526" lon="0.39897">
        <ele>87</ele>
        <time>2015-09-03T08:07:38Z</time>
      </trkpt>
      <trkpt lat="44.02522" lon="0.39908">
        <ele>93</ele>
        <time>2015-09-03T08:07:45Z</time>
      </trkpt>
      <trkpt lat="44.02517" lon="0.3992">
        <ele>93</ele>
        <time>2015-09-03T08:07:53Z</time>
      </trkpt>
      <trkpt lat="44.02512" lon="0.39931">
        <ele>93</ele>
        <time>2015-09-03T08:08:01Z</time>
      </trkpt>
      <trkpt lat="44.02507" lon="0.39942">
        <ele>93</ele>
        <time>2015-09-03T08:08:10Z</time>
      </trkpt>
      <trkpt lat="44.02502" lon="0.39953">
        <ele>93</ele>
        <time>2015-09-03T08:08:18Z</time>
      </trkpt>
      <trkpt lat="44.02496" lon="0.39963">
        <ele>93</ele>
        <time>2015-09-03T08:08:28Z</time>
      </trkpt>
      <trkpt lat="44.02489" lon="0.39972">
        <ele>93</ele>
        <time>2015-09-03T08:08:35Z</time>
      </trkpt>
      <trkpt lat="44.02483" lon="0.39981">
        <ele>93</ele>
        <time>2015-09-03T08:08:43Z</time>
      </trkpt>
      <trkpt lat="44.02477" lon="0.3999">
        <ele>93</ele>
        <time>2015-09-03T08:08:50Z</time>
      </trkpt>
      <trkpt lat="44.0247" lon="0.39999">
        <ele>93</ele>
        <time>2015-09-03T08:08:57Z</time>
      </trkpt>
      <trkpt lat="44.02462" lon="0.40008">
        <ele>98</ele>
        <time>2015-09-03T08:09:06Z</time>
      </trkpt>
      <trkpt lat="44.02456" lon="0.40017">
        <ele>98</ele>
        <time>2015-09-03T08:09:15Z</time>
      </trkpt>
      <trkpt lat="44.02449" lon="0.40027">
        <ele>98</ele>
        <time>2015-09-03T08:09:23Z</time>
      </trkpt>
      <trkpt lat="44.02442" lon="0.40036">
        <ele>98</ele>
        <time>2015-09-03T08:09:31Z</time>
      </trkpt>
      <trkpt lat="44.02436" lon="0.40045">
        <ele>98</ele>
        <time>2015-09-03T08:09:39Z</time>
      </trkpt>
      <trkpt lat="44.02429" lon="0.40054">
        <ele>98</ele>
        <time>2015-09-03T08:09:47Z</time>
      </trkpt>
      <trkpt lat="44.02423" lon="0.40064">
        <ele>98</ele>
        <time>2015-09-03T08:09:56Z</time>
      </trkpt>
      <trkpt lat="44.02417" lon="0.40075">
        <ele>98</ele>
        <time>2015-09-03T08:10:02Z</time>
      </trkpt>
      <trkpt lat="44.02411" lon="0.40086">
        <ele>98</ele>
        <time>2015-09-03T08:10:11Z</time>
      </trkpt>
      <trkpt lat="44.02406" lon="0.40096">
        <ele>98</ele>
        <time>2015-09-03T08:10:18Z</time>
      </trkpt>
      <trkpt lat="44.02402" lon="0.40108">
        <ele>98</ele>
        <time>2015-09-03T08:10:25Z</time>
      </trkpt>
      <trkpt lat="44.02399" lon="0.4012">
        <ele>98</ele>
        <time>2015-09-03T08:10:34Z</time>
      </trkpt>
      <trkpt lat="44.02394" lon="0.40132">
        <ele>103</ele>
        <time>2015-09-03T08:10:42Z</time>
      </trkpt>
      <trkpt lat="44.02391" lon="0.40144">
        <ele>103</ele>
        <time>2015-09-03T08:10:49Z</time>
      </trkpt>
      <trkpt lat="44.02386" lon="0.40156">
        <ele>103</ele>
        <time>2015-09-03T08:10:58Z</time>
      </trkpt>
      <trkpt lat="44.02383" lon="0.40169">
        <ele>103</ele>
        <time>2015-09-03T08:11:06Z</time>
      </trkpt>
      <trkpt lat="44.02379" lon="0.40182">
        <ele>103</ele>
        <time>2015-09-03T08:11:14Z</time>
      </trkpt>
      <trkpt lat="44.02375" lon="0.40194">
        <ele>103</ele>
        <time>2015-09-03T08:11:23Z</time>
      </trkpt>
      <trkpt lat="44.02371" lon="0.40205">
        <ele>103</ele>
        <time>2015-09-03T08:11:30Z</time>
      </trkpt>
      <trkpt lat="44.02368" lon="0.40218">
        <ele>108</ele>
        <time>2015-09-03T08:11:40Z</time>
      </trkpt>
      <trkpt lat="44.02364" lon="0.40229">
        <ele>108</ele>
        <time>2015-09-03T08:11:48Z</time>
      </trkpt>
      <trkpt lat="44.0236" lon="0.40242">
        <ele>108</ele>
        <time>2015-09-03T08:11:56Z</time>
      </trkpt>
      <trkpt lat="44.02357" lon="0.40255">
        <ele>108</ele>
        <time>2015-09-03T08:12:06Z</time>
      </trkpt>
      <trkpt lat="44.02356" lon="0.40269">
        <ele>108</ele>
        <time>2015-09-03T08:12:13Z</time>
      </trkpt>
      <trkpt lat="44.02352" lon="0.40281">
        <ele>108</ele>
        <time>2015-09-03T08:12:22Z</time>
      </trkpt>
      <trkpt lat="44.02351" lon="0.40294">
        <ele>112</ele>
        <time>2015-09-03T08:12:42Z</time>
      </trkpt>
      <trkpt lat="44.02346" lon="0.40306">
        <ele>112</ele>
        <time>2015-09-03T08:13:07Z</time>
      </trkpt>
      <trkpt lat="44.02345" lon="0.40319">
        <ele>112</ele>
        <time>2015-09-03T08:13:18Z</time>
      </trkpt>
      <trkpt lat="44.02343" lon="0.40331">
        <ele>112</ele>
        <time>2015-09-03T08:13:26Z</time>
      </trkpt>
      <trkpt lat="44.02341" lon="0.40344">
        <ele>112</ele>
        <time>2015-09-03T08:13:35Z</time>
      </trkpt>
      <trkpt lat="44.0234" lon="0.40356">
        <ele>112</ele>
        <time>2015-09-03T08:13:42Z</time>
      </trkpt>
      <trkpt lat="44.02339" lon="0.40369">
        <ele>116</ele>
        <time>2015-09-03T08:13:51Z</time>
      </trkpt>
      <trkpt lat="44.02338" lon="0.40383">
        <ele>116</ele>
        <time>2015-09-03T08:14:00Z</time>
      </trkpt>
      <trkpt lat="44.02336" lon="0.40396">
        <ele>116</ele>
        <time>2015-09-03T08:14:07Z</time>
      </trkpt>
      <trkpt lat="44.02334" lon="0.40409">
        <ele>116</ele>
        <time>2015-09-03T08:14:17Z</time>
      </trkpt>
      <trkpt lat="44.02331" lon="0.40422">
        <ele>120</ele>
        <time>2015-09-03T08:14:25Z</time>
      </trkpt>
      <trkpt lat="44.02328" lon="0.40434">
        <ele>120</ele>
        <time>2015-09-03T08:14:34Z</time>
      </trkpt>
      <trkpt lat="44.02324" lon="0.40445">
        <ele>120</ele>
        <time>2015-09-03T08:14:42Z</time>
      </trkpt>
      <trkpt lat="44.0232" lon="0.40457">
        <ele>120</ele>
        <time>2015-09-03T08:14:49Z</time>
      </trkpt>
      <trkpt lat="44.02317" lon="0.40469">
        <ele>120</ele>
        <time>2015-09-03T08:14:58Z</time>
      </trkpt>
      <trkpt lat="44.02312" lon="0.40481">
        <ele>120</ele>
        <time>2015-09-03T08:15:06Z</time>
      </trkpt>
      <trkpt lat="44.02309" lon="0.40494">
        <ele>120</ele>
        <time>2015-09-03T08:15:14Z</time>
      </trkpt>
      <trkpt lat="44.02306" lon="0.40505">
        <ele>120</ele>
        <time>2015-09-03T08:15:23Z</time>
      </trkpt>
      <trkpt lat="44.02302" lon="0.40518">
        <ele>120</ele>
        <time>2015-09-03T08:15:30Z</time>
      </trkpt>
      <trkpt lat="44.02298" lon="0.4053">
        <ele>120</ele>
        <time>2015-09-03T08:15:39Z</time>
      </trkpt>
      <trkpt lat="44.02294" lon="0.40542">
        <ele>124</ele>
        <time>2015-09-03T08:15:48Z</time>
      </trkpt>
      <trkpt lat="44.02291" lon="0.40554">
        <ele>124</ele>
        <time>2015-09-03T08:15:55Z</time>
      </trkpt>
      <trkpt lat="44.02287" lon="0.40567">
        <ele>124</ele>
        <time>2015-09-03T08:16:04Z</time>
      </trkpt>
      <trkpt lat="44.02284" lon="0.40579">
        <ele>124</ele>
        <time>2015-09-03T08:16:16Z</time>
      </trkpt>
      <trkpt lat="44.02283" lon="0.40592">
        <ele>130</ele>
        <time>2015-09-03T08:16:40Z</time>
      </trkpt>
      <trkpt lat="44.02278" lon="0.40603">
        <ele>130</ele>
        <time>2015-09-03T08:16:50Z</time>
      </trkpt>
      <trkpt lat="44.02273" lon="0.40614">
        <ele>130</ele>
        <time>2015-09-03T08:16:58Z</time>
      </trkpt>
      <trkpt lat="44.02268" lon="0.40625">
        <ele>130</ele>
        <time>2015-09-03T08:17:06Z</time>
      </trkpt>
      <trkpt lat="44.02263" lon="0.40636">
        <ele>130</ele>
        <time>2015-09-03T08:17:14Z</time>
      </trkpt>
      <trkpt lat="44.02257" lon="0.40647">
        <ele>130</ele>
        <time>2015-09-03T08:17:21Z</time>
      </trkpt>
      <trkpt lat="44.02251" lon="0.40657">
        <ele>130</ele>
        <time>2015-09-03T08:17:30Z</time>
      </trkpt>
      <trkpt lat="44.02244" lon="0.40665">
        <ele>130</ele>
        <time>2015-09-03T08:17:38Z</time>
      </trkpt>
      <trkpt lat="44.02237" lon="0.40674">
        <ele>130</ele>
        <time>2015-09-03T08:17:46Z</time>
      </trkpt>
      <trkpt lat="44.0223" lon="0.40682">
        <ele>130</ele>
        <time>2015-09-03T08:17:56Z</time>
      </trkpt>
      <trkpt lat="44.02222" lon="0.4069">
        <ele>130</ele>
        <time>2015-09-03T08:18:03Z</time>
      </trkpt>
      <trkpt lat="44.02214" lon="0.40698">
        <ele>130</ele>
        <time>2015-09-03T08:18:12Z</time>
      </trkpt>
      <trkpt lat="44.02207" lon="0.40707">
        <ele>135</ele>
        <time>2015-09-03T08:18:19Z</time>
      </trkpt>
      <trkpt lat="44.022" lon="0.40715">
        <ele>135</ele>
        <time>2015-09-03T08:18:25Z</time>
      </trkpt>
      <trkpt lat="44.02194" lon="0.40724">
        <ele>135</ele>
        <time>2015-09-03T08:18:34Z</time>
      </trkpt>
      <trkpt lat="44.02188" lon="0.40734">
        <ele>135</ele>
        <time>2015-09-03T08:18:42Z</time>
      </trkpt>
      <trkpt lat="44.02184" lon="0.40745">
        <ele>135</ele>
        <time>2015-09-03T08:18:49Z</time>
      </trkpt>
      <trkpt lat="44.02183" lon="0.40759">
        <ele>140</ele>
        <time>2015-09-03T08:18:59Z</time>
      </trkpt>
      <trkpt lat="44.02183" lon="0.40772">
        <ele>140</ele>
        <time>2015-09-03T08:19:07Z</time>
      </trkpt>
      <trkpt lat="44.02183" lon="0.40786">
        <ele>140</ele>
        <time>2015-09-03T08:19:15Z</time>
      </trkpt>
      <trkpt lat="44.0219" lon="0.40793">
        <ele>140</ele>
        <time>2015-09-03T08:19:31Z</time>
      </trkpt>
      <trkpt lat="44.02199" lon="0.40797">
        <ele>140</ele>
        <time>2015-09-03T08:19:43Z</time>
      </trkpt>
      <trkpt lat="44.02208" lon="0.408">
        <ele>140</ele>
        <time>2015-09-03T08:19:53Z</time>
      </trkpt>
      <trkpt lat="44.02218" lon="0.40802">
        <ele>140</ele>
        <time>2015-09-03T08:20:04Z</time>
      </trkpt>
      <trkpt lat="44.02228" lon="0.40806">
        <ele>140</ele>
        <time>2015-09-03T08:20:15Z</time>
      </trkpt>
      <trkpt lat="44.02237" lon="0.40808">
        <ele>140</ele>
        <time>2015-09-03T08:20:24Z</time>
      </trkpt>
      <trkpt lat="44.02246" lon="0.40811">
        <ele>140</ele>
        <time>2015-09-03T08:20:31Z</time>
      </trkpt>
      <trkpt lat="44.02256" lon="0.40817">
        <ele>140</ele>
        <time>2015-09-03T08:20:41Z</time>
      </trkpt>
      <trkpt lat="44.02264" lon="0.40824">
        <ele>140</ele>
        <time>2015-09-03T08:20:52Z</time>
      </trkpt>
      <trkpt lat="44.02271" lon="0.40832">
        <ele>140</ele>
        <time>2015-09-03T08:21:02Z</time>
      </trkpt>
      <trkpt lat="44.0228" lon="0.40837">
        <ele>140</ele>
        <time>2015-09-03T08:21:14Z</time>
      </trkpt>
      <trkpt lat="44.02289" lon="0.4084">
        <ele>140</ele>
        <time>2015-09-03T08:21:24Z</time>
      </trkpt>
      <trkpt lat="44.02298" lon="0.40846">
        <ele>140</ele>
        <time>2015-09-03T08:21:34Z</time>
      </trkpt>
      <trkpt lat="44.02306" lon="0.40852">
        <ele>140</ele>
        <time>2015-09-03T08:21:43Z</time>
      </trkpt>
      <trkpt lat="44.02314" lon="0.40859">
        <ele>135</ele>
        <time>2015-09-03T08:21:54Z</time>
      </trkpt>
      <trkpt lat="44.02322" lon="0.40866">
        <ele>135</ele>
        <time>2015-09-03T08:22:05Z</time>
      </trkpt>
      <trkpt lat="44.02332" lon="0.40868">
        <ele>135</ele>
        <time>2015-09-03T08:22:20Z</time>
      </trkpt>
      <trkpt lat="44.02341" lon="0.40872">
        <ele>135</ele>
        <time>2015-09-03T08:22:36Z</time>
      </trkpt>
      <trkpt lat="44.0235" lon="0.40876">
        <ele>131</ele>
        <time>2015-09-03T08:22:46Z</time>
      </trkpt>
      <trkpt lat="44.02358" lon="0.40883">
        <ele>131</ele>
        <time>2015-09-03T08:22:57Z</time>
      </trkpt>
      <trkpt lat="44.02367" lon="0.40887">
        <ele>131</ele>
        <time>2015-09-03T08:23:11Z</time>
      </trkpt>
      <trkpt lat="44.02358" lon="0.4089">
        <ele>131</ele>
        <time>2015-09-03T08:24:09Z</time>
      </trkpt>
      <trkpt lat="44.02367" lon="0.40889">
        <ele>132</ele>
        <time>2015-09-03T08:26:19Z</time>
      </trkpt>
      <trkpt lat="44.02375" lon="0.40894">
        <ele>132</ele>
        <time>2015-09-03T08:26:30Z</time>
      </trkpt>
      <trkpt lat="44.02385" lon="0.40895">
        <ele>127</ele>
        <time>2015-09-03T08:26:45Z</time>
      </trkpt>
      <trkpt lat="44.02392" lon="0.40887">
        <ele>127</ele>
        <time>2015-09-03T08:26:56Z</time>
      </trkpt>
      <trkpt lat="44.02396" lon="0.40876">
        <ele>127</ele>
        <time>2015-09-03T08:27:08Z</time>
      </trkpt>
      <trkpt lat="44.02401" lon="0.40865">
        <ele>127</ele>
        <time>2015-09-03T08:27:16Z</time>
      </trkpt>
      <trkpt lat="44.02408" lon="0.40856">
        <ele>127</ele>
        <time>2015-09-03T08:27:26Z</time>
      </trkpt>
      <trkpt lat="44.02415" lon="0.40848">
        <ele>127</ele>
        <time>2015-09-03T08:27:35Z</time>
      </trkpt>
      <trkpt lat="44.02423" lon="0.40839">
        <ele>127</ele>
        <time>2015-09-03T08:27:45Z</time>
      </trkpt>
      <trkpt lat="44.02429" lon="0.4083">
        <ele>127</ele>
        <time>2015-09-03T08:27:56Z</time>
      </trkpt>
      <trkpt lat="44.02435" lon="0.40819">
        <ele>127</ele>
        <time>2015-09-03T08:28:06Z</time>
      </trkpt>
      <trkpt lat="44.0244" lon="0.40808">
        <ele>123</ele>
        <time>2015-09-03T08:28:14Z</time>
      </trkpt>
      <trkpt lat="44.02446" lon="0.40797">
        <ele>123</ele>
        <time>2015-09-03T08:28:23Z</time>
      </trkpt>
      <trkpt lat="44.02454" lon="0.40789">
        <ele>123</ele>
        <time>2015-09-03T08:28:33Z</time>
      </trkpt>
      <trkpt lat="44.0246" lon="0.40779">
        <ele>123</ele>
        <time>2015-09-03T08:28:42Z</time>
      </trkpt>
      <trkpt lat="44.02463" lon="0.40767">
        <ele>123</ele>
        <time>2015-09-03T08:29:01Z</time>
      </trkpt>
      <trkpt lat="44.02468" lon="0.40756">
        <ele>123</ele>
        <time>2015-09-03T08:29:24Z</time>
      </trkpt>
      <trkpt lat="44.02462" lon="0.40747">
        <ele>123</ele>
        <time>2015-09-03T08:30:47Z</time>
      </trkpt>
      <trkpt lat="44.0247" lon="0.40751">
        <ele>123</ele>
        <time>2015-09-03T08:32:13Z</time>
      </trkpt>
      <trkpt lat="44.02476" lon="0.40741">
        <ele>124</ele>
        <time>2015-09-03T08:32:24Z</time>
      </trkpt>
      <trkpt lat="44.0248" lon="0.40729">
        <ele>124</ele>
        <time>2015-09-03T08:32:35Z</time>
      </trkpt>
      <trkpt lat="44.02485" lon="0.40718">
        <ele>124</ele>
        <time>2015-09-03T08:32:43Z</time>
      </trkpt>
      <trkpt lat="44.0249" lon="0.40707">
        <ele>124</ele>
        <time>2015-09-03T08:32:54Z</time>
      </trkpt>
      <trkpt lat="44.02495" lon="0.40694">
        <ele>124</ele>
        <time>2015-09-03T08:33:03Z</time>
      </trkpt>
      <trkpt lat="44.02499" lon="0.40682">
        <ele>124</ele>
        <time>2015-09-03T08:33:12Z</time>
      </trkpt>
      <trkpt lat="44.02504" lon="0.40671">
        <ele>124</ele>
        <time>2015-09-03T08:33:21Z</time>
      </trkpt>
      <trkpt lat="44.02507" lon="0.40659">
        <ele>124</ele>
        <time>2015-09-03T08:33:39Z</time>
      </trkpt>
      <trkpt lat="44.02511" lon="0.40648">
        <ele>124</ele>
        <time>2015-09-03T08:33:47Z</time>
      </trkpt>
      <trkpt lat="44.02515" lon="0.40634">
        <ele>124</ele>
        <time>2015-09-03T08:33:57Z</time>
      </trkpt>
      <trkpt lat="44.0252" lon="0.40623">
        <ele>124</ele>
        <time>2015-09-03T08:34:05Z</time>
      </trkpt>
      <trkpt lat="44.02525" lon="0.40613">
        <ele>124</ele>
        <time>2015-09-03T08:34:17Z</time>
      </trkpt>
      <trkpt lat="44.02532" lon="0.40604">
        <ele>124</ele>
        <time>2015-09-03T08:34:48Z</time>
      </trkpt>
      <trkpt lat="44.02534" lon="0.40591">
        <ele>123</ele>
        <time>2015-09-03T08:34:57Z</time>
      </trkpt>
      <trkpt lat="44.02539" lon="0.4058">
        <ele>123</ele>
        <time>2015-09-03T08:35:06Z</time>
      </trkpt>
      <trkpt lat="44.02543" lon="0.40568">
        <ele>123</ele>
        <time>2015-09-03T08:35:14Z</time>
      </trkpt>
      <trkpt lat="44.02547" lon="0.40556">
        <ele>123</ele>
        <time>2015-09-03T08:35:21Z</time>
      </trkpt>
      <trkpt lat="44.02551" lon="0.40544">
        <ele>123</ele>
        <time>2015-09-03T08:35:30Z</time>
      </trkpt>
      <trkpt lat="44.02556" lon="0.40532">
        <ele>123</ele>
        <time>2015-09-03T08:35:37Z</time>
      </trkpt>
      <trkpt lat="44.0256" lon="0.40521">
        <ele>118</ele>
        <time>2015-09-03T08:35:46Z</time>
      </trkpt>
      <trkpt lat="44.02565" lon="0.40509">
        <ele>118</ele>
        <time>2015-09-03T08:35:55Z</time>
      </trkpt>
      <trkpt lat="44.0257" lon="0.40498">
        <ele>118</ele>
        <time>2015-09-03T08:36:02Z</time>
      </trkpt>
      <trkpt lat="44.02575" lon="0.40487">
        <ele>123</ele>
        <time>2015-09-03T08:36:11Z</time>
      </trkpt>
      <trkpt lat="44.02578" lon="0.40474">
        <ele>123</ele>
        <time>2015-09-03T08:36:20Z</time>
      </trkpt>
      <trkpt lat="44.02581" lon="0.40463">
        <ele>123</ele>
        <time>2015-09-03T08:36:30Z</time>
      </trkpt>
      <trkpt lat="44.02585" lon="0.40451">
        <ele>123</ele>
        <time>2015-09-03T08:36:39Z</time>
      </trkpt>
      <trkpt lat="44.02591" lon="0.40441">
        <ele>123</ele>
        <time>2015-09-03T08:36:47Z</time>
      </trkpt>
      <trkpt lat="44.02596" lon="0.4043">
        <ele>123</ele>
        <time>2015-09-03T08:36:56Z</time>
      </trkpt>
      <trkpt lat="44.02601" lon="0.40419">
        <ele>123</ele>
        <time>2015-09-03T08:37:04Z</time>
      </trkpt>
      <trkpt lat="44.02607" lon="0.40409">
        <ele>123</ele>
        <time>2015-09-03T08:37:13Z</time>
      </trkpt>
      <trkpt lat="44.02612" lon="0.40398">
        <ele>123</ele>
        <time>2015-09-03T08:37:21Z</time>
      </trkpt>
      <trkpt lat="44.02618" lon="0.40387">
        <ele>123</ele>
        <time>2015-09-03T08:37:29Z</time>
      </trkpt>
      <trkpt lat="44.02624" lon="0.40376">
        <ele>123</ele>
        <time>2015-09-03T08:37:39Z</time>
      </trkpt>
      <trkpt lat="44.02629" lon="0.40365">
        <ele>123</ele>
        <time>2015-09-03T08:37:47Z</time>
      </trkpt>
      <trkpt lat="44.02636" lon="0.40356">
        <ele>123</ele>
        <time>2015-09-03T08:37:56Z</time>
      </trkpt>
      <trkpt lat="44.02643" lon="0.40347">
        <ele>119</ele>
        <time>2015-09-03T08:38:05Z</time>
      </trkpt>
      <trkpt lat="44.02649" lon="0.40337">
        <ele>119</ele>
        <time>2015-09-03T08:38:13Z</time>
      </trkpt>
      <trkpt lat="44.02653" lon="0.40325">
        <ele>119</ele>
        <time>2015-09-03T08:38:22Z</time>
      </trkpt>
      <trkpt lat="44.02657" lon="0.40313">
        <ele>119</ele>
        <time>2015-09-03T08:38:30Z</time>
      </trkpt>
      <trkpt lat="44.0266" lon="0.403">
        <ele>119</ele>
        <time>2015-09-03T08:38:37Z</time>
      </trkpt>
      <trkpt lat="44.02663" lon="0.40288">
        <ele>115</ele>
        <time>2015-09-03T08:38:46Z</time>
      </trkpt>
      <trkpt lat="44.02667" lon="0.40277">
        <ele>115</ele>
        <time>2015-09-03T08:38:54Z</time>
      </trkpt>
      <trkpt lat="44.02671" lon="0.40265">
        <ele>115</ele>
        <time>2015-09-03T08:39:03Z</time>
      </trkpt>
      <trkpt lat="44.02675" lon="0.40253">
        <ele>115</ele>
        <time>2015-09-03T08:39:12Z</time>
      </trkpt>
      <trkpt lat="44.02679" lon="0.40241">
        <ele>110</ele>
        <time>2015-09-03T08:39:21Z</time>
      </trkpt>
      <trkpt lat="44.02684" lon="0.4023">
        <ele>110</ele>
        <time>2015-09-03T08:39:33Z</time>
      </trkpt>
      <trkpt lat="44.02692" lon="0.40221">
        <ele>110</ele>
        <time>2015-09-03T08:39:42Z</time>
      </trkpt>
      <trkpt lat="44.027" lon="0.40213">
        <ele>110</ele>
        <time>2015-09-03T08:39:52Z</time>
      </trkpt>
      <trkpt lat="44.02708" lon="0.40207">
        <ele>110</ele>
        <time>2015-09-03T08:40:00Z</time>
      </trkpt>
      <trkpt lat="44.02716" lon="0.402">
        <ele>110</ele>
        <time>2015-09-03T08:40:11Z</time>
      </trkpt>
      <trkpt lat="44.02723" lon="0.40191">
        <ele>106</ele>
        <time>2015-09-03T08:40:20Z</time>
      </trkpt>
      <trkpt lat="44.02731" lon="0.40183">
        <ele>106</ele>
        <time>2015-09-03T08:40:30Z</time>
      </trkpt>
      <trkpt lat="44.02738" lon="0.40174">
        <ele>100</ele>
        <time>2015-09-03T08:40:39Z</time>
      </trkpt>
      <trkpt lat="44.02745" lon="0.40163">
        <ele>100</ele>
        <time>2015-09-03T08:40:47Z</time>
      </trkpt>
      <trkpt lat="44.02751" lon="0.40152">
        <ele>100</ele>
        <time>2015-09-03T08:40:56Z</time>
      </trkpt>
      <trkpt lat="44.02757" lon="0.40141">
        <ele>100</ele>
        <time>2015-09-03T08:41:04Z</time>
      </trkpt>
      <trkpt lat="44.02761" lon="0.4013">
        <ele>100</ele>
        <time>2015-09-03T08:41:12Z</time>
      </trkpt>
      <trkpt lat="44.02765" lon="0.40117">
        <ele>100</ele>
        <time>2015-09-03T08:41:20Z</time>
      </trkpt>
      <trkpt lat="44.02769" lon="0.40106">
        <ele>100</ele>
        <time>2015-09-03T08:41:27Z</time>
      </trkpt>
      <trkpt lat="44.02774" lon="0.40095">
        <ele>100</ele>
        <time>2015-09-03T08:41:36Z</time>
      </trkpt>
      <trkpt lat="44.02779" lon="0.40083">
        <ele>100</ele>
        <time>2015-09-03T08:41:45Z</time>
      </trkpt>
      <trkpt lat="44.02784" lon="0.40072">
        <ele>94</ele>
        <time>2015-09-03T08:41:54Z</time>
      </trkpt>
      <trkpt lat="44.02788" lon="0.40059">
        <ele>94</ele>
        <time>2015-09-03T08:42:05Z</time>
      </trkpt>
      <trkpt lat="44.02792" lon="0.40048">
        <ele>94</ele>
        <time>2015-09-03T08:42:13Z</time>
      </trkpt>
      <trkpt lat="44.02797" lon="0.40036">
        <ele>94</ele>
        <time>2015-09-03T08:42:23Z</time>
      </trkpt>
      <trkpt lat="44.02801" lon="0.40024">
        <ele>94</ele>
        <time>2015-09-03T08:42:31Z</time>
      </trkpt>
      <trkpt lat="44.02805" lon="0.40012">
        <ele>94</ele>
        <time>2015-09-03T08:42:38Z</time>
      </trkpt>
      <trkpt lat="44.0281" lon="0.4">
        <ele>94</ele>
        <time>2015-09-03T08:42:48Z</time>
      </trkpt>
      <trkpt lat="44.02815" lon="0.39989">
        <ele>94</ele>
        <time>2015-09-03T08:42:55Z</time>
      </trkpt>
      <trkpt lat="44.02819" lon="0.39977">
        <ele>94</ele>
        <time>2015-09-03T08:43:05Z</time>
      </trkpt>
      <trkpt lat="44.02824" lon="0.39965">
        <ele>94</ele>
        <time>2015-09-03T08:43:14Z</time>
      </trkpt>
      <trkpt lat="44.02829" lon="0.39954">
        <ele>94</ele>
        <time>2015-09-03T08:43:22Z</time>
      </trkpt>
      <trkpt lat="44.02834" lon="0.39943">
        <ele>88</ele>
        <time>2015-09-03T08:43:31Z</time>
      </trkpt>
      <trkpt lat="44.02838" lon="0.3993">
        <ele>88</ele>
        <time>2015-09-03T08:43:39Z</time>
      </trkpt>
      <trkpt lat="44.02842" lon="0.39917">
        <ele>88</ele>
        <time>2015-09-03T08:43:49Z</time>
      </trkpt>
      <trkpt lat="44.02847" lon="0.39906">
        <ele>88</ele>
        <time>2015-09-03T08:43:57Z</time>
      </trkpt>
      <trkpt lat="44.02851" lon="0.39895">
        <ele>88</ele>
        <time>2015-09-03T08:44:04Z</time>
      </trkpt>
      <trkpt lat="44.02856" lon="0.39883">
        <ele>88</ele>
        <time>2015-09-03T08:44:14Z</time>
      </trkpt>
      <trkpt lat="44.02861" lon="0.39871">
        <ele>88</ele>
        <time>2015-09-03T08:44:22Z</time>
      </trkpt>
      <trkpt lat="44.02865" lon="0.39859">
        <ele>88</ele>
        <time>2015-09-03T08:44:32Z</time>
      </trkpt>
      <trkpt lat="44.02869" lon="0.39848">
        <ele>88</ele>
        <time>2015-09-03T08:44:41Z</time>
      </trkpt>
      <trkpt lat="44.02874" lon="0.39836">
        <ele>88</ele>
        <time>2015-09-03T08:44:50Z</time>
      </trkpt>
      <trkpt lat="44.02884" lon="0.39833">
        <ele>84</ele>
        <time>2015-09-03T08:45:03Z</time>
      </trkpt>
      <trkpt lat="44.02894" lon="0.39835">
        <ele>84</ele>
        <time>2015-09-03T08:45:11Z</time>
      </trkpt>
      <trkpt lat="44.02903" lon="0.39838">
        <ele>84</ele>
        <time>2015-09-03T08:45:21Z</time>
      </trkpt>
      <trkpt lat="44.02913" lon="0.3984">
        <ele>84</ele>
        <time>2015-09-03T08:45:29Z</time>
      </trkpt>
      <trkpt lat="44.02923" lon="0.39843">
        <ele>84</ele>
        <time>2015-09-03T08:45:39Z</time>
      </trkpt>
      <trkpt lat="44.02933" lon="0.39846">
        <ele>84</ele>
        <time>2015-09-03T08:45:48Z</time>
      </trkpt>
      <trkpt lat="44.02943" lon="0.39849">
        <ele>84</ele>
        <time>2015-09-03T08:45:57Z</time>
      </trkpt>
      <trkpt lat="44.02952" lon="0.39851">
        <ele>84</ele>
        <time>2015-09-03T08:46:06Z</time>
      </trkpt>
      <trkpt lat="44.02962" lon="0.39854">
        <ele>84</ele>
        <time>2015-09-03T08:46:14Z</time>
      </trkpt>
      <trkpt lat="44.02972" lon="0.39856">
        <ele>84</ele>
        <time>2015-09-03T08:46:24Z</time>
      </trkpt>
      <trkpt lat="44.02981" lon="0.39859">
        <ele>84</ele>
        <time>2015-09-03T08:46:50Z</time>
      </trkpt>
      <trkpt lat="44.0299" lon="0.39861">
        <ele>84</ele>
        <time>2015-09-03T08:46:58Z</time>
      </trkpt>
      <trkpt lat="44.03" lon="0.39862">
        <ele>84</ele>
        <time>2015-09-03T08:47:08Z</time>
      </trkpt>
      <trkpt lat="44.03009" lon="0.39865">
        <ele>84</ele>
        <time>2015-09-03T08:47:17Z</time>
      </trkpt>
      <trkpt lat="44.03019" lon="0.39866">
        <ele>84</ele>
        <time>2015-09-03T08:47:27Z</time>
      </trkpt>
      <trkpt lat="44.03028" lon="0.39869">
        <ele>80</ele>
        <time>2015-09-03T08:47:36Z</time>
      </trkpt>
      <trkpt lat="44.03037" lon="0.39871">
        <ele>80</ele>
        <time>2015-09-03T08:47:45Z</time>
      </trkpt>
      <trkpt lat="44.03046" lon="0.39872">
        <ele>80</ele>
        <time>2015-09-03T08:48:09Z</time>
      </trkpt>
      <trkpt lat="44.03056" lon="0.39873">
        <ele>80</ele>
        <time>2015-09-03T08:48:18Z</time>
      </trkpt>
      <trkpt lat="44.03066" lon="0.39874">
        <ele>80</ele>
        <time>2015-09-03T08:48:25Z</time>
      </trkpt>
      <trkpt lat="44.03075" lon="0.39876">
        <ele>80</ele>
        <time>2015-09-03T08:48:34Z</time>
      </trkpt>
      <trkpt lat="44.03085" lon="0.39878">
        <ele>80</ele>
        <time>2015-09-03T08:48:42Z</time>
      </trkpt>
      <trkpt lat="44.03094" lon="0.3988">
        <ele>80</ele>
        <time>2015-09-03T08:48:49Z</time>
      </trkpt>
      <trkpt lat="44.03104" lon="0.39883">
        <ele>80</ele>
        <time>2015-09-03T08:49:00Z</time>
      </trkpt>
      <trkpt lat="44.03113" lon="0.39886">
        <ele>80</ele>
        <time>2015-09-03T08:49:08Z</time>
      </trkpt>
      <trkpt lat="44.03123" lon="0.39888">
        <ele>80</ele>
        <time>2015-09-03T08:49:18Z</time>
      </trkpt>
      <trkpt lat="44.03132" lon="0.3989">
        <ele>80</ele>
        <time>2015-09-03T08:49:26Z</time>
      </trkpt>
      <trkpt lat="44.03141" lon="0.39893">
        <ele>80</ele>
        <time>2015-09-03T08:49:34Z</time>
      </trkpt>
      <trkpt lat="44.03151" lon="0.39896">
        <ele>80</ele>
        <time>2015-09-03T08:49:43Z</time>
      </trkpt>
      <trkpt lat="44.0316" lon="0.39899">
        <ele>80</ele>
        <time>2015-09-03T08:49:50Z</time>
      </trkpt>
      <trkpt lat="44.0317" lon="0.39902">
        <ele>80</ele>
        <time>2015-09-03T08:50:00Z</time>
      </trkpt>
      <trkpt lat="44.03179" lon="0.39903">
        <ele>79</ele>
        <time>2015-09-03T08:50:09Z</time>
      </trkpt>
      <trkpt lat="44.03188" lon="0.39905">
        <ele>79</ele>
        <time>2015-09-03T08:50:16Z</time>
      </trkpt>
      <trkpt lat="44.03197" lon="0.39907">
        <ele>79</ele>
        <time>2015-09-03T08:50:26Z</time>
      </trkpt>
      <trkpt lat="44.03207" lon="0.3991">
        <ele>79</ele>
        <time>2015-09-03T08:50:34Z</time>
      </trkpt>
      <trkpt lat="44.03217" lon="0.39913">
        <ele>79</ele>
        <time>2015-09-03T08:50:43Z</time>
      </trkpt>
      <trkpt lat="44.03227" lon="0.39915">
        <ele>79</ele>
        <time>2015-09-03T08:50:52Z</time>
      </trkpt>
      <trkpt lat="44.03236" lon="0.39917">
        <ele>79</ele>
        <time>2015-09-03T08:51:00Z</time>
      </trkpt>
      <trkpt lat="44.03246" lon="0.39919">
        <ele>79</ele>
        <time>2015-09-03T08:51:10Z</time>
      </trkpt>
      <trkpt lat="44.03255" lon="0.39921">
        <ele>79</ele>
        <time>2015-09-03T08:51:18Z</time>
      </trkpt>
      <trkpt lat="44.03265" lon="0.39923">
        <ele>79</ele>
        <time>2015-09-03T08:51:27Z</time>
      </trkpt>
      <trkpt lat="44.03274" lon="0.39925">
        <ele>79</ele>
        <time>2015-09-03T08:51:36Z</time>
      </trkpt>
      <trkpt lat="44.03283" lon="0.39928">
        <ele>79</ele>
        <time>2015-09-03T08:51:43Z</time>
      </trkpt>
      <trkpt lat="44.03293" lon="0.39929">
        <ele>79</ele>
        <time>2015-09-03T08:51:53Z</time>
      </trkpt>
      <trkpt lat="44.03302" lon="0.39932">
        <ele>72</ele>
        <time>2015-09-03T08:52:02Z</time>
      </trkpt>
      <trkpt lat="44.03312" lon="0.39935">
        <ele>72</ele>
        <time>2015-09-03T08:52:12Z</time>
      </trkpt>
      <trkpt lat="44.03322" lon="0.39937">
        <ele>72</ele>
        <time>2015-09-03T08:52:22Z</time>
      </trkpt>
      <trkpt lat="44.03331" lon="0.3994">
        <ele>72</ele>
        <time>2015-09-03T08:52:30Z</time>
      </trkpt>
      <trkpt lat="44.03341" lon="0.39942">
        <ele>72</ele>
        <time>2015-09-03T08:52:41Z</time>
      </trkpt>
      <trkpt lat="44.03351" lon="0.39944">
        <ele>72</ele>
        <time>2015-09-03T08:52:50Z</time>
      </trkpt>
      <trkpt lat="44.0336" lon="0.39946">
        <ele>68</ele>
        <time>2015-09-03T08:53:01Z</time>
      </trkpt>
      <trkpt lat="44.0337" lon="0.39948">
        <ele>68</ele>
        <time>2015-09-03T08:53:10Z</time>
      </trkpt>
      <trkpt lat="44.03379" lon="0.39949">
        <ele>68</ele>
        <time>2015-09-03T08:53:21Z</time>
      </trkpt>
      <trkpt lat="44.03388" lon="0.39949">
        <ele>68</ele>
        <time>2015-09-03T08:53:30Z</time>
      </trkpt>
      <trkpt lat="44.03394" lon="0.39939">
        <ele>68</ele>
        <time>2015-09-03T08:53:57Z</time>
      </trkpt>
      <trkpt lat="44.03395" lon="0.39926">
        <ele>68</ele>
        <time>2015-09-03T08:54:06Z</time>
      </trkpt>
      <trkpt lat="44.03395" lon="0.39913">
        <ele>68</ele>
        <time>2015-09-03T08:54:13Z</time>
      </trkpt>
      <trkpt lat="44.03394" lon="0.39899">
        <ele>68</ele>
        <time>2015-09-03T08:54:22Z</time>
      </trkpt>
      <trkpt lat="44.03394" lon="0.39887">
        <ele>68</ele>
        <time>2015-09-03T08:54:29Z</time>
      </trkpt>
      <trkpt lat="44.03394" lon="0.39873">
        <ele>68</ele>
        <time>2015-09-03T08:54:36Z</time>
      </trkpt>
      <trkpt lat="44.03395" lon="0.3986">
        <ele>68</ele>
        <time>2015-09-03T08:54:45Z</time>
      </trkpt>
      <trkpt lat="44.03397" lon="0.39848">
        <ele>68</ele>
        <time>2015-09-03T08:54:53Z</time>
      </trkpt>
      <trkpt lat="44.03399" lon="0.39834">
        <ele>64</ele>
        <time>2015-09-03T08:55:01Z</time>
      </trkpt>
      <trkpt lat="44.03401" lon="0.39822">
        <ele>64</ele>
        <time>2015-09-03T08:55:09Z</time>
      </trkpt>
      <trkpt lat="44.03403" lon="0.39808">
        <ele>68</ele>
        <time>2015-09-03T08:55:18Z</time>
      </trkpt>
      <trkpt lat="44.03405" lon="0.39795">
        <ele>68</ele>
        <time>2015-09-03T08:55:25Z</time>
      </trkpt>
      <trkpt lat="44.03407" lon="0.39782">
        <ele>63</ele>
        <time>2015-09-03T08:55:34Z</time>
      </trkpt>
      <trkpt lat="44.03408" lon="0.39768">
        <ele>63</ele>
        <time>2015-09-03T08:55:41Z</time>
      </trkpt>
      <trkpt lat="44.0341" lon="0.39755">
        <ele>63</ele>
        <time>2015-09-03T08:55:49Z</time>
      </trkpt>
      <trkpt lat="44.03411" lon="0.39741">
        <ele>68</ele>
        <time>2015-09-03T08:55:57Z</time>
      </trkpt>
      <trkpt lat="44.03412" lon="0.39729">
        <ele>68</ele>
        <time>2015-09-03T08:56:03Z</time>
      </trkpt>
      <trkpt lat="44.03413" lon="0.39715">
        <ele>68</ele>
        <time>2015-09-03T08:56:11Z</time>
      </trkpt>
      <trkpt lat="44.03415" lon="0.39701">
        <ele>68</ele>
        <time>2015-09-03T08:56:20Z</time>
      </trkpt>
      <trkpt lat="44.03416" lon="0.39688">
        <ele>68</ele>
        <time>2015-09-03T08:56:28Z</time>
      </trkpt>
      <trkpt lat="44.03418" lon="0.39675">
        <ele>63</ele>
        <time>2015-09-03T08:56:44Z</time>
      </trkpt>
      <trkpt lat="44.03419" lon="0.39662">
        <ele>63</ele>
        <time>2015-09-03T08:56:51Z</time>
      </trkpt>
      <trkpt lat="44.0342" lon="0.39648">
        <ele>63</ele>
        <time>2015-09-03T08:57:01Z</time>
      </trkpt>
      <trkpt lat="44.03421" lon="0.39636">
        <ele>57</ele>
        <time>2015-09-03T08:57:08Z</time>
      </trkpt>
      <trkpt lat="44.03423" lon="0.39623">
        <ele>57</ele>
        <time>2015-09-03T08:57:17Z</time>
      </trkpt>
      <trkpt lat="44.03428" lon="0.39612">
        <ele>57</ele>
        <time>2015-09-03T08:57:25Z</time>
      </trkpt>
      <trkpt lat="44.03438" lon="0.39612">
        <ele>61</ele>
        <time>2015-09-03T08:57:32Z</time>
      </trkpt>
      <trkpt lat="44.03447" lon="0.39614">
        <ele>61</ele>
        <time>2015-09-03T08:57:41Z</time>
      </trkpt>
      <trkpt lat="44.03457" lon="0.39614">
        <ele>61</ele>
        <time>2015-09-03T08:57:49Z</time>
      </trkpt>
      <trkpt lat="44.03466" lon="0.39617">
        <ele>61</ele>
        <time>2015-09-03T08:57:56Z</time>
      </trkpt>
      <trkpt lat="44.03476" lon="0.39619">
        <ele>56</ele>
        <time>2015-09-03T08:58:06Z</time>
      </trkpt>
      <trkpt lat="44.03486" lon="0.39622">
        <ele>56</ele>
        <time>2015-09-03T08:58:13Z</time>
      </trkpt>
      <trkpt lat="44.03496" lon="0.39624">
        <ele>56</ele>
        <time>2015-09-03T08:58:23Z</time>
      </trkpt>
      <trkpt lat="44.03505" lon="0.39627">
        <ele>56</ele>
        <time>2015-09-03T08:58:34Z</time>
      </trkpt>
      <trkpt lat="44.03514" lon="0.39628">
        <ele>56</ele>
        <time>2015-09-03T08:58:47Z</time>
      </trkpt>
      <trkpt lat="44.03516" lon="0.3964">
        <ele>56</ele>
        <time>2015-09-03T08:58:59Z</time>
      </trkpt>
      <trkpt lat="44.03515" lon="0.39654">
        <ele>51</ele>
        <time>2015-09-03T08:59:10Z</time>
      </trkpt>
      <trkpt lat="44.03512" lon="0.39667">
        <ele>51</ele>
        <time>2015-09-03T08:59:19Z</time>
      </trkpt>
      <trkpt lat="44.03511" lon="0.3968">
        <ele>55</ele>
        <time>2015-09-03T08:59:29Z</time>
      </trkpt>
      <trkpt lat="44.03507" lon="0.39692">
        <ele>55</ele>
        <time>2015-09-03T08:59:38Z</time>
      </trkpt>
      <trkpt lat="44.0351" lon="0.39704">
        <ele>55</ele>
        <time>2015-09-03T08:59:46Z</time>
      </trkpt>
      <trkpt lat="44.03515" lon="0.39717">
        <ele>55</ele>
        <time>2015-09-03T08:59:56Z</time>
      </trkpt>
      <trkpt lat="44.03517" lon="0.39729">
        <ele>55</ele>
        <time>2015-09-03T09:00:04Z</time>
      </trkpt>
      <trkpt lat="44.03515" lon="0.39742">
        <ele>55</ele>
        <time>2015-09-03T09:00:14Z</time>
      </trkpt>
      <trkpt lat="44.03514" lon="0.39756">
        <ele>55</ele>
        <time>2015-09-03T09:00:24Z</time>
      </trkpt>
      <trkpt lat="44.03513" lon="0.39769">
        <ele>55</ele>
        <time>2015-09-03T09:00:31Z</time>
      </trkpt>
      <trkpt lat="44.03513" lon="0.39782">
        <ele>55</ele>
        <time>2015-09-03T09:00:40Z</time>
      </trkpt>
      <trkpt lat="44.03515" lon="0.39794">
        <ele>55</ele>
        <time>2015-09-03T09:00:47Z</time>
      </trkpt>
      <trkpt lat="44.03521" lon="0.39805">
        <ele>55</ele>
        <time>2015-09-03T09:00:57Z</time>
      </trkpt>
      <trkpt lat="44.03528" lon="0.39812">
        <ele>55</ele>
        <time>2015-09-03T09:01:05Z</time>
      </trkpt>
      <trkpt lat="44.03537" lon="0.39819">
        <ele>55</ele>
        <time>2015-09-03T09:01:13Z</time>
      </trkpt>
      <trkpt lat="44.03546" lon="0.39821">
        <ele>55</ele>
        <time>2015-09-03T09:01:25Z</time>
      </trkpt>
      <trkpt lat="44.03555" lon="0.39826">
        <ele>55</ele>
        <time>2015-09-03T09:01:33Z</time>
      </trkpt>
      <trkpt lat="44.03563" lon="0.39831">
        <ele>60</ele>
        <time>2015-09-03T09:01:43Z</time>
      </trkpt>
      <trkpt lat="44.03572" lon="0.39836">
        <ele>46</ele>
        <time>2015-09-03T09:01:54Z</time>
      </trkpt>
      <trkpt lat="44.0358" lon="0.39843">
        <ele>46</ele>
        <time>2015-09-03T09:02:08Z</time>
      </trkpt>
      <trkpt lat="44.03587" lon="0.39851">
        <ele>62</ele>
        <time>2015-09-03T09:02:49Z</time>
      </trkpt>
      <trkpt lat="44.03594" lon="0.3986">
        <ele>62</ele>
        <time>2015-09-03T09:03:00Z</time>
      </trkpt>
      <trkpt lat="44.03604" lon="0.39863">
        <ele>62</ele>
        <time>2015-09-03T09:03:09Z</time>
      </trkpt>
      <trkpt lat="44.03613" lon="0.39862">
        <ele>67</ele>
        <time>2015-09-03T09:03:20Z</time>
      </trkpt>
      <trkpt lat="44.03622" lon="0.39856">
        <ele>67</ele>
        <time>2015-09-03T09:03:31Z</time>
      </trkpt>
      <trkpt lat="44.0363" lon="0.39851">
        <ele>67</ele>
        <time>2015-09-03T09:03:43Z</time>
      </trkpt>
      <trkpt lat="44.03638" lon="0.39858">
        <ele>72</ele>
        <time>2015-09-03T09:04:02Z</time>
      </trkpt>
      <trkpt lat="44.03646" lon="0.39865">
        <ele>79</ele>
        <time>2015-09-03T09:04:41Z</time>
      </trkpt>
      <trkpt lat="44.03647" lon="0.39852">
        <ele>79</ele>
        <time>2015-09-03T09:05:36Z</time>
      </trkpt>
      <trkpt lat="44.03647" lon="0.3984">
        <ele>79</ele>
        <time>2015-09-03T09:05:49Z</time>
      </trkpt>
      <trkpt lat="44.03648" lon="0.39827">
        <ele>79</ele>
        <time>2015-09-03T09:06:15Z</time>
      </trkpt>
      <trkpt lat="44.03648" lon="0.39814">
        <ele>79</ele>
        <time>2015-09-03T09:06:26Z</time>
      </trkpt>
      <trkpt lat="44.03646" lon="0.39801">
        <ele>79</ele>
        <time>2015-09-03T09:06:37Z</time>
      </trkpt>
      <trkpt lat="44.03647" lon="0.39789">
        <ele>79</ele>
        <time>2015-09-03T09:06:47Z</time>
      </trkpt>
      <trkpt lat="44.03647" lon="0.39776">
        <ele>79</ele>
        <time>2015-09-03T09:06:59Z</time>
      </trkpt>
      <trkpt lat="44.03645" lon="0.39763">
        <ele>79</ele>
        <time>2015-09-03T09:07:21Z</time>
      </trkpt>
      <trkpt lat="44.03645" lon="0.3975">
        <ele>79</ele>
        <time>2015-09-03T09:07:33Z</time>
      </trkpt>
      <trkpt lat="44.03645" lon="0.39737">
        <ele>79</ele>
        <time>2015-09-03T09:07:43Z</time>
      </trkpt>
      <trkpt lat="44.03647" lon="0.39724">
        <ele>79</ele>
        <time>2015-09-03T09:07:53Z</time>
      </trkpt>
      <trkpt lat="44.03649" lon="0.39711">
        <ele>78</ele>
        <time>2015-09-03T09:08:05Z</time>
      </trkpt>
      <trkpt lat="44.03651" lon="0.39698">
        <ele>82</ele>
        <time>2015-09-03T09:08:20Z</time>
      </trkpt>
      <trkpt lat="44.03654" lon="0.39685">
        <ele>82</ele>
        <time>2015-09-03T09:08:32Z</time>
      </trkpt>
      <trkpt lat="44.0366" lon="0.39675">
        <ele>82</ele>
        <time>2015-09-03T09:08:46Z</time>
      </trkpt>
      <trkpt lat="44.03664" lon="0.39663">
        <ele>82</ele>
        <time>2015-09-03T09:08:57Z</time>
      </trkpt>
      <trkpt lat="44.03663" lon="0.3965">
        <ele>82</ele>
        <time>2015-09-03T09:09:20Z</time>
      </trkpt>
      <trkpt lat="44.03667" lon="0.39638">
        <ele>82</ele>
        <time>2015-09-03T09:09:30Z</time>
      </trkpt>
      <trkpt lat="44.03672" lon="0.39627">
        <ele>82</ele>
        <time>2015-09-03T09:09:41Z</time>
      </trkpt>
      <trkpt lat="44.03667" lon="0.39638">
        <ele>82</ele>
        <time>2015-09-03T09:10:11Z</time>
      </trkpt>
      <trkpt lat="44.03662" lon="0.3965">
        <ele>82</ele>
        <time>2015-09-03T09:10:20Z</time>
      </trkpt>
      <trkpt lat="44.0366" lon="0.39662">
        <ele>78</ele>
        <time>2015-09-03T09:10:31Z</time>
      </trkpt>
      <trkpt lat="44.03656" lon="0.39675">
        <ele>78</ele>
        <time>2015-09-03T09:10:41Z</time>
      </trkpt>
      <trkpt lat="44.03652" lon="0.39686">
        <ele>78</ele>
        <time>2015-09-03T09:10:52Z</time>
      </trkpt>
      <trkpt lat="44.03652" lon="0.397">
        <ele>78</ele>
        <time>2015-09-03T09:11:02Z</time>
      </trkpt>
      <trkpt lat="44.03661" lon="0.39705">
        <ele>78</ele>
        <time>2015-09-03T09:11:13Z</time>
      </trkpt>
      <trkpt lat="44.03669" lon="0.39711">
        <ele>78</ele>
        <time>2015-09-03T09:11:24Z</time>
      </trkpt>
      <trkpt lat="44.03677" lon="0.39717">
        <ele>83</ele>
        <time>2015-09-03T09:11:36Z</time>
      </trkpt>
      <trkpt lat="44.03686" lon="0.39723">
        <ele>83</ele>
        <time>2015-09-03T09:11:45Z</time>
      </trkpt>
      <trkpt lat="44.03695" lon="0.39728">
        <ele>83</ele>
        <time>2015-09-03T09:11:55Z</time>
      </trkpt>
      <trkpt lat="44.03704" lon="0.39734">
        <ele>83</ele>
        <time>2015-09-03T09:12:08Z</time>
      </trkpt>
      <trkpt lat="44.03712" lon="0.3974">
        <ele>83</ele>
        <time>2015-09-03T09:12:18Z</time>
      </trkpt>
      <trkpt lat="44.03721" lon="0.39746">
        <ele>83</ele>
        <time>2015-09-03T09:12:28Z</time>
      </trkpt>
      <trkpt lat="44.03729" lon="0.39751">
        <ele>83</ele>
        <time>2015-09-03T09:12:38Z</time>
      </trkpt>
      <trkpt lat="44.03738" lon="0.39758">
        <ele>83</ele>
        <time>2015-09-03T09:12:48Z</time>
      </trkpt>
      <trkpt lat="44.03747" lon="0.39765">
        <ele>83</ele>
        <time>2015-09-03T09:12:57Z</time>
      </trkpt>
      <trkpt lat="44.03755" lon="0.39771">
        <ele>89</ele>
        <time>2015-09-03T09:13:07Z</time>
      </trkpt>
      <trkpt lat="44.03764" lon="0.39777">
        <ele>89</ele>
        <time>2015-09-03T09:13:15Z</time>
      </trkpt>
      <trkpt lat="44.03772" lon="0.39783">
        <ele>89</ele>
        <time>2015-09-03T09:13:25Z</time>
      </trkpt>
      <trkpt lat="44.03781" lon="0.39788">
        <ele>89</ele>
        <time>2015-09-03T09:13:46Z</time>
      </trkpt>
      <trkpt lat="44.0379" lon="0.39794">
        <ele>89</ele>
        <time>2015-09-03T09:13:55Z</time>
      </trkpt>
      <trkpt lat="44.03799" lon="0.398">
        <ele>89</ele>
        <time>2015-09-03T09:14:05Z</time>
      </trkpt>
      <trkpt lat="44.03807" lon="0.39806">
        <ele>89</ele>
        <time>2015-09-03T09:14:17Z</time>
      </trkpt>
      <trkpt lat="44.03816" lon="0.39811">
        <ele>89</ele>
        <time>2015-09-03T09:14:29Z</time>
      </trkpt>
      <trkpt lat="44.03825" lon="0.39817">
        <ele>98</ele>
        <time>2015-09-03T09:14:40Z</time>
      </trkpt>
      <trkpt lat="44.03834" lon="0.39823">
        <ele>98</ele>
        <time>2015-09-03T09:14:51Z</time>
      </trkpt>
      <trkpt lat="44.03843" lon="0.39829">
        <ele>98</ele>
        <time>2015-09-03T09:15:01Z</time>
      </trkpt>
      <trkpt lat="44.03851" lon="0.39835">
        <ele>98</ele>
        <time>2015-09-03T09:15:11Z</time>
      </trkpt>
      <trkpt lat="44.03859" lon="0.39841">
        <ele>103</ele>
        <time>2015-09-03T09:15:21Z</time>
      </trkpt>
      <trkpt lat="44.03868" lon="0.39844">
        <ele>103</ele>
        <time>2015-09-03T09:15:34Z</time>
      </trkpt>
      <trkpt lat="44.03876" lon="0.39851">
        <ele>109</ele>
        <time>2015-09-03T09:15:46Z</time>
      </trkpt>
      <trkpt lat="44.03884" lon="0.39858">
        <ele>105</ele>
        <time>2015-09-03T09:15:58Z</time>
      </trkpt>
      <trkpt lat="44.03891" lon="0.39865">
        <ele>105</ele>
        <time>2015-09-03T09:16:10Z</time>
      </trkpt>
      <trkpt lat="44.039" lon="0.3987">
        <ele>110</ele>
        <time>2015-09-03T09:16:20Z</time>
      </trkpt>
      <trkpt lat="44.03909" lon="0.39876">
        <ele>110</ele>
        <time>2015-09-03T09:16:29Z</time>
      </trkpt>
      <trkpt lat="44.03918" lon="0.39882">
        <ele>110</ele>
        <time>2015-09-03T09:16:38Z</time>
      </trkpt>
      <trkpt lat="44.03927" lon="0.39889">
        <ele>110</ele>
        <time>2015-09-03T09:16:47Z</time>
      </trkpt>
      <trkpt lat="44.03936" lon="0.39894">
        <ele>110</ele>
        <time>2015-09-03T09:16:54Z</time>
      </trkpt>
      <trkpt lat="44.03945" lon="0.3989">
        <ele>110</ele>
        <time>2015-09-03T09:17:06Z</time>
      </trkpt>
      <trkpt lat="44.03951" lon="0.3988">
        <ele>110</ele>
        <time>2015-09-03T09:17:18Z</time>
      </trkpt>
      <trkpt lat="44.03959" lon="0.39877">
        <ele>110</ele>
        <time>2015-09-03T09:17:31Z</time>
      </trkpt>
      <trkpt lat="44.03968" lon="0.39878">
        <ele>110</ele>
        <time>2015-09-03T09:17:41Z</time>
      </trkpt>
      <trkpt lat="44.03977" lon="0.39882">
        <ele>110</ele>
        <time>2015-09-03T09:17:53Z</time>
      </trkpt>
      <trkpt lat="44.03986" lon="0.39885">
        <ele>110</ele>
        <time>2015-09-03T09:18:00Z</time>
      </trkpt>
      <trkpt lat="44.03996" lon="0.39889">
        <ele>110</ele>
        <time>2015-09-03T09:18:09Z</time>
      </trkpt>
      <trkpt lat="44.04005" lon="0.3989">
        <ele>110</ele>
        <time>2015-09-03T09:18:17Z</time>
      </trkpt>
      <trkpt lat="44.04015" lon="0.39892">
        <ele>110</ele>
        <time>2015-09-03T09:18:24Z</time>
      </trkpt>
      <trkpt lat="44.04024" lon="0.39893">
        <ele>112</ele>
        <time>2015-09-03T09:18:34Z</time>
      </trkpt>
      <trkpt lat="44.04033" lon="0.39894">
        <ele>112</ele>
        <time>2015-09-03T09:18:43Z</time>
      </trkpt>
      <trkpt lat="44.04043" lon="0.39896">
        <ele>112</ele>
        <time>2015-09-03T09:18:52Z</time>
      </trkpt>
      <trkpt lat="44.04052" lon="0.39899">
        <ele>112</ele>
        <time>2015-09-03T09:19:01Z</time>
      </trkpt>
      <trkpt lat="44.04062" lon="0.39904">
        <ele>112</ele>
        <time>2015-09-03T09:19:11Z</time>
      </trkpt>
      <trkpt lat="44.0407" lon="0.39907">
        <ele>112</ele>
        <time>2015-09-03T09:19:18Z</time>
      </trkpt>
      <trkpt lat="44.0408" lon="0.39909">
        <ele>112</ele>
        <time>2015-09-03T09:19:26Z</time>
      </trkpt>
      <trkpt lat="44.04089" lon="0.3991">
        <ele>112</ele>
        <time>2015-09-03T09:19:35Z</time>
      </trkpt>
      <trkpt lat="44.04098" lon="0.39913">
        <ele>112</ele>
        <time>2015-09-03T09:19:43Z</time>
      </trkpt>
      <trkpt lat="44.04108" lon="0.39917">
        <ele>112</ele>
        <time>2015-09-03T09:19:51Z</time>
      </trkpt>
      <trkpt lat="44.04116" lon="0.39922">
        <ele>112</ele>
        <time>2015-09-03T09:20:00Z</time>
      </trkpt>
      <trkpt lat="44.04125" lon="0.39927">
        <ele>117</ele>
        <time>2015-09-03T09:20:08Z</time>
      </trkpt>
      <trkpt lat="44.04133" lon="0.39933">
        <ele>117</ele>
        <time>2015-09-03T09:20:16Z</time>
      </trkpt>
      <trkpt lat="44.04142" lon="0.39934">
        <ele>117</ele>
        <time>2015-09-03T09:20:37Z</time>
      </trkpt>
      <trkpt lat="44.04149" lon="0.39925">
        <ele>117</ele>
        <time>2015-09-03T09:20:52Z</time>
      </trkpt>
      <trkpt lat="44.0415" lon="0.39911">
        <ele>113</ele>
        <time>2015-09-03T09:21:07Z</time>
      </trkpt>
      <trkpt lat="44.04146" lon="0.39898">
        <ele>113</ele>
        <time>2015-09-03T09:21:15Z</time>
      </trkpt>
      <trkpt lat="44.04145" lon="0.39884">
        <ele>113</ele>
        <time>2015-09-03T09:21:28Z</time>
      </trkpt>
      <trkpt lat="44.04146" lon="0.39871">
        <ele>113</ele>
        <time>2015-09-03T09:21:38Z</time>
      </trkpt>
      <trkpt lat="44.04147" lon="0.39858">
        <ele>108</ele>
        <time>2015-09-03T09:21:49Z</time>
      </trkpt>
      <trkpt lat="44.04151" lon="0.39847">
        <ele>108</ele>
        <time>2015-09-03T09:22:01Z</time>
      </trkpt>
      <trkpt lat="44.0415" lon="0.39834">
        <ele>108</ele>
        <time>2015-09-03T09:22:10Z</time>
      </trkpt>
      <trkpt lat="44.04149" lon="0.3982">
        <ele>108</ele>
        <time>2015-09-03T09:22:19Z</time>
      </trkpt>
      <trkpt lat="44.04153" lon="0.39808">
        <ele>103</ele>
        <time>2015-09-03T09:22:27Z</time>
      </trkpt>
      <trkpt lat="44.04157" lon="0.39797">
        <ele>103</ele>
        <time>2015-09-03T09:22:37Z</time>
      </trkpt>
      <trkpt lat="44.04164" lon="0.39788">
        <ele>103</ele>
        <time>2015-09-03T09:22:45Z</time>
      </trkpt>
      <trkpt lat="44.04168" lon="0.39777">
        <ele>103</ele>
        <time>2015-09-03T09:22:57Z</time>
      </trkpt>
      <trkpt lat="44.04171" lon="0.39764">
        <ele>103</ele>
        <time>2015-09-03T09:23:09Z</time>
      </trkpt>
      <trkpt lat="44.04171" lon="0.3975">
        <ele>97</ele>
        <time>2015-09-03T09:23:20Z</time>
      </trkpt>
      <trkpt lat="44.04168" lon="0.39738">
        <ele>97</ele>
        <time>2015-09-03T09:23:30Z</time>
      </trkpt>
      <trkpt lat="44.04168" lon="0.39724">
        <ele>97</ele>
        <time>2015-09-03T09:23:43Z</time>
      </trkpt>
      <trkpt lat="44.04167" lon="0.39711">
        <ele>97</ele>
        <time>2015-09-03T09:24:08Z</time>
      </trkpt>
      <trkpt lat="44.04168" lon="0.39698">
        <ele>97</ele>
        <time>2015-09-03T09:24:19Z</time>
      </trkpt>
      <trkpt lat="44.04168" lon="0.39686">
        <ele>97</ele>
        <time>2015-09-03T09:24:30Z</time>
      </trkpt>
      <trkpt lat="44.04168" lon="0.39673">
        <ele>97</ele>
        <time>2015-09-03T09:24:39Z</time>
      </trkpt>
      <trkpt lat="44.04167" lon="0.3966">
        <ele>97</ele>
        <time>2015-09-03T09:24:48Z</time>
      </trkpt>
      <trkpt lat="44.04168" lon="0.39647">
        <ele>92</ele>
        <time>2015-09-03T09:24:58Z</time>
      </trkpt>
      <trkpt lat="44.04168" lon="0.39634">
        <ele>92</ele>
        <time>2015-09-03T09:25:10Z</time>
      </trkpt>
      <trkpt lat="44.04169" lon="0.3962">
        <ele>92</ele>
        <time>2015-09-03T09:25:20Z</time>
      </trkpt>
      <trkpt lat="44.04169" lon="0.39608">
        <ele>92</ele>
        <time>2015-09-03T09:25:31Z</time>
      </trkpt>
      <trkpt lat="44.04169" lon="0.39595">
        <ele>92</ele>
        <time>2015-09-03T09:25:39Z</time>
      </trkpt>
      <trkpt lat="44.0417" lon="0.39581">
        <ele>92</ele>
        <time>2015-09-03T09:25:49Z</time>
      </trkpt>
      <trkpt lat="44.04167" lon="0.39569">
        <ele>88</ele>
        <time>2015-09-03T09:26:00Z</time>
      </trkpt>
      <trkpt lat="44.0416" lon="0.39561">
        <ele>88</ele>
        <time>2015-09-03T09:26:08Z</time>
      </trkpt>
      <trkpt lat="44.04152" lon="0.39553">
        <ele>88</ele>
        <time>2015-09-03T09:26:19Z</time>
      </trkpt>
      <trkpt lat="44.04145" lon="0.39544">
        <ele>88</ele>
        <time>2015-09-03T09:26:27Z</time>
      </trkpt>
      <trkpt lat="44.04137" lon="0.39536">
        <ele>84</ele>
        <time>2015-09-03T09:26:40Z</time>
      </trkpt>
      <trkpt lat="44.04128" lon="0.3953">
        <ele>84</ele>
        <time>2015-09-03T09:26:48Z</time>
      </trkpt>
      <trkpt lat="44.0412" lon="0.39524">
        <ele>84</ele>
        <time>2015-09-03T09:26:58Z</time>
      </trkpt>
      <trkpt lat="44.04111" lon="0.39518">
        <ele>80</ele>
        <time>2015-09-03T09:27:06Z</time>
      </trkpt>
      <trkpt lat="44.04103" lon="0.39512">
        <ele>80</ele>
        <time>2015-09-03T09:27:16Z</time>
      </trkpt>
      <trkpt lat="44.04095" lon="0.39505">
        <ele>80</ele>
        <time>2015-09-03T09:27:23Z</time>
      </trkpt>
      <trkpt lat="44.04087" lon="0.39497">
        <ele>80</ele>
        <time>2015-09-03T09:27:30Z</time>
      </trkpt>
      <trkpt lat="44.04082" lon="0.39485">
        <ele>80</ele>
        <time>2015-09-03T09:27:42Z</time>
      </trkpt>
      <trkpt lat="44.04079" lon="0.39473">
        <ele>80</ele>
        <time>2015-09-03T09:27:51Z</time>
      </trkpt>
      <trkpt lat="44.04074" lon="0.39461">
        <ele>80</ele>
        <time>2015-09-03T09:28:02Z</time>
      </trkpt>
      <trkpt lat="44.04068" lon="0.39449">
        <ele>80</ele>
        <time>2015-09-03T09:28:12Z</time>
      </trkpt>
      <trkpt lat="44.04063" lon="0.3944">
        <ele>80</ele>
        <time>2015-09-03T09:28:22Z</time>
      </trkpt>
      <trkpt lat="44.04056" lon="0.39429">
        <ele>80</ele>
        <time>2015-09-03T09:28:31Z</time>
      </trkpt>
      <trkpt lat="44.0405" lon="0.39419">
        <ele>80</ele>
        <time>2015-09-03T09:28:41Z</time>
      </trkpt>
      <trkpt lat="44.04047" lon="0.39408">
        <ele>77</ele>
        <time>2015-09-03T09:30:24Z</time>
      </trkpt>
      <trkpt lat="44.04038" lon="0.39401">
        <ele>77</ele>
        <time>2015-09-03T09:30:36Z</time>
      </trkpt>
      <trkpt lat="44.04032" lon="0.3939">
        <ele>77</ele>
        <time>2015-09-03T09:30:46Z</time>
      </trkpt>
      <trkpt lat="44.04031" lon="0.39377">
        <ele>77</ele>
        <time>2015-09-03T09:30:58Z</time>
      </trkpt>
      <trkpt lat="44.04033" lon="0.39365">
        <ele>77</ele>
        <time>2015-09-03T09:31:06Z</time>
      </trkpt>
      <trkpt lat="44.04032" lon="0.39351">
        <ele>77</ele>
        <time>2015-09-03T09:31:14Z</time>
      </trkpt>
      <trkpt lat="44.04031" lon="0.39337">
        <ele>77</ele>
        <time>2015-09-03T09:31:22Z</time>
      </trkpt>
      <trkpt lat="44.04028" lon="0.39325">
        <ele>77</ele>
        <time>2015-09-03T09:31:28Z</time>
      </trkpt>
      <trkpt lat="44.04028" lon="0.39312">
        <ele>77</ele>
        <time>2015-09-03T09:31:35Z</time>
      </trkpt>
      <trkpt lat="44.04029" lon="0.39299">
        <ele>77</ele>
        <time>2015-09-03T09:31:48Z</time>
      </trkpt>
      <trkpt lat="44.0403" lon="0.39285">
        <ele>77</ele>
        <time>2015-09-03T09:31:57Z</time>
      </trkpt>
      <trkpt lat="44.04033" lon="0.39273">
        <ele>77</ele>
        <time>2015-09-03T09:32:07Z</time>
      </trkpt>
      <trkpt lat="44.04031" lon="0.3926">
        <ele>75</ele>
        <time>2015-09-03T09:32:27Z</time>
      </trkpt>
      <trkpt lat="44.04034" lon="0.39248">
        <ele>75</ele>
        <time>2015-09-03T09:32:35Z</time>
      </trkpt>
      <trkpt lat="44.04036" lon="0.39235">
        <ele>75</ele>
        <time>2015-09-03T09:32:45Z</time>
      </trkpt>
      <trkpt lat="44.04039" lon="0.39221">
        <ele>75</ele>
        <time>2015-09-03T09:32:54Z</time>
      </trkpt>
      <trkpt lat="44.04041" lon="0.39208">
        <ele>75</ele>
        <time>2015-09-03T09:33:01Z</time>
      </trkpt>
      <trkpt lat="44.04044" lon="0.39195">
        <ele>75</ele>
        <time>2015-09-03T09:33:11Z</time>
      </trkpt>
      <trkpt lat="44.04046" lon="0.39182">
        <ele>75</ele>
        <time>2015-09-03T09:33:19Z</time>
      </trkpt>
      <trkpt lat="44.04047" lon="0.39168">
        <ele>75</ele>
        <time>2015-09-03T09:33:28Z</time>
      </trkpt>
      <trkpt lat="44.04044" lon="0.39155">
        <ele>75</ele>
        <time>2015-09-03T09:33:35Z</time>
      </trkpt>
      <trkpt lat="44.04042" lon="0.39143">
        <ele>75</ele>
        <time>2015-09-03T09:33:42Z</time>
      </trkpt>
      <trkpt lat="44.04038" lon="0.3913">
        <ele>75</ele>
        <time>2015-09-03T09:33:51Z</time>
      </trkpt>
      <trkpt lat="44.04035" lon="0.39118">
        <ele>75</ele>
        <time>2015-09-03T09:34:00Z</time>
      </trkpt>
      <trkpt lat="44.04032" lon="0.39105">
        <ele>75</ele>
        <time>2015-09-03T09:34:08Z</time>
      </trkpt>
      <trkpt lat="44.04029" lon="0.39091">
        <ele>75</ele>
        <time>2015-09-03T09:34:18Z</time>
      </trkpt>
      <trkpt lat="44.0403" lon="0.39079">
        <ele>75</ele>
        <time>2015-09-03T09:34:26Z</time>
      </trkpt>
      <trkpt lat="44.04029" lon="0.39066">
        <ele>75</ele>
        <time>2015-09-03T09:34:35Z</time>
      </trkpt>
      <trkpt lat="44.04031" lon="0.39052">
        <ele>75</ele>
        <time>2015-09-03T09:34:45Z</time>
      </trkpt>
      <trkpt lat="44.04034" lon="0.3904">
        <ele>71</ele>
        <time>2015-09-03T09:34:52Z</time>
      </trkpt>
      <trkpt lat="44.04037" lon="0.39028">
        <ele>71</ele>
        <time>2015-09-03T09:35:01Z</time>
      </trkpt>
      <trkpt lat="44.04042" lon="0.39016">
        <ele>71</ele>
        <time>2015-09-03T09:35:09Z</time>
      </trkpt>
      <trkpt lat="44.04047" lon="0.39004">
        <ele>71</ele>
        <time>2015-09-03T09:35:20Z</time>
      </trkpt>
      <trkpt lat="44.04052" lon="0.38995">
        <ele>71</ele>
        <time>2015-09-03T09:35:31Z</time>
      </trkpt>
      <trkpt lat="44.04059" lon="0.38986">
        <ele>71</ele>
        <time>2015-09-03T09:35:44Z</time>
      </trkpt>
      <trkpt lat="44.04065" lon="0.38976">
        <ele>71</ele>
        <time>2015-09-03T09:35:53Z</time>
      </trkpt>
      <trkpt lat="44.04071" lon="0.38967">
        <ele>67</ele>
        <time>2015-09-03T09:36:04Z</time>
      </trkpt>
      <trkpt lat="44.04076" lon="0.38955">
        <ele>67</ele>
        <time>2015-09-03T09:36:13Z</time>
      </trkpt>
      <trkpt lat="44.04079" lon="0.38943">
        <ele>67</ele>
        <time>2015-09-03T09:36:21Z</time>
      </trkpt>
      <trkpt lat="44.04082" lon="0.3893">
        <ele>67</ele>
        <time>2015-09-03T09:36:31Z</time>
      </trkpt>
      <trkpt lat="44.04083" lon="0.38917">
        <ele>67</ele>
        <time>2015-09-03T09:36:39Z</time>
      </trkpt>
      <trkpt lat="44.04084" lon="0.38905">
        <ele>62</ele>
        <time>2015-09-03T09:36:48Z</time>
      </trkpt>
      <trkpt lat="44.04087" lon="0.38892">
        <ele>62</ele>
        <time>2015-09-03T09:36:57Z</time>
      </trkpt>
      <trkpt lat="44.0409" lon="0.38879">
        <ele>57</ele>
        <time>2015-09-03T09:37:07Z</time>
      </trkpt>
      <trkpt lat="44.04093" lon="0.38866">
        <ele>57</ele>
        <time>2015-09-03T09:37:16Z</time>
      </trkpt>
      <trkpt lat="44.04095" lon="0.38853">
        <ele>57</ele>
        <time>2015-09-03T09:37:24Z</time>
      </trkpt>
      <trkpt lat="44.04098" lon="0.3884">
        <ele>57</ele>
        <time>2015-09-03T09:37:34Z</time>
      </trkpt>
      <trkpt lat="44.04099" lon="0.38828">
        <ele>57</ele>
        <time>2015-09-03T09:37:47Z</time>
      </trkpt>
      <trkpt lat="44.04091" lon="0.38822">
        <ele>57</ele>
        <time>2015-09-03T09:37:59Z</time>
      </trkpt>
      <trkpt lat="44.04082" lon="0.38817">
        <ele>57</ele>
        <time>2015-09-03T09:38:07Z</time>
      </trkpt>
      <trkpt lat="44.04073" lon="0.38813">
        <ele>52</ele>
        <time>2015-09-03T09:38:16Z</time>
      </trkpt>
      <trkpt lat="44.04065" lon="0.38806">
        <ele>52</ele>
        <time>2015-09-03T09:38:27Z</time>
      </trkpt>
      <trkpt lat="44.04057" lon="0.38798">
        <ele>52</ele>
        <time>2015-09-03T09:38:36Z</time>
      </trkpt>
      <trkpt lat="44.04048" lon="0.38792">
        <ele>52</ele>
        <time>2015-09-03T09:38:47Z</time>
      </trkpt>
      <trkpt lat="44.04039" lon="0.38787">
        <ele>52</ele>
        <time>2015-09-03T09:38:59Z</time>
      </trkpt>
      <trkpt lat="44.04032" lon="0.38779">
        <ele>52</ele>
        <time>2015-09-03T09:39:11Z</time>
      </trkpt>
      <trkpt lat="44.04025" lon="0.3877">
        <ele>52</ele>
        <time>2015-09-03T09:39:22Z</time>
      </trkpt>
      <trkpt lat="44.04019" lon="0.3876">
        <ele>46</ele>
        <time>2015-09-03T09:39:33Z</time>
      </trkpt>
      <trkpt lat="44.0401" lon="0.38753">
        <ele>46</ele>
        <time>2015-09-03T09:39:46Z</time>
      </trkpt>
      <trkpt lat="44.04001" lon="0.38748">
        <ele>46</ele>
        <time>2015-09-03T09:39:55Z</time>
      </trkpt>
      <trkpt lat="44.03991" lon="0.38746">
        <ele>46</ele>
        <time>2015-09-03T09:40:04Z</time>
      </trkpt>
      <trkpt lat="44.03982" lon="0.3874">
        <ele>46</ele>
        <time>2015-09-03T09:40:13Z</time>
      </trkpt>
      <trkpt lat="44.03975" lon="0.38732">
        <ele>46</ele>
        <time>2015-09-03T09:40:21Z</time>
      </trkpt>
      <trkpt lat="44.03968" lon="0.38724">
        <ele>46</ele>
        <time>2015-09-03T09:40:31Z</time>
      </trkpt>
      <trkpt lat="44.0396" lon="0.38715">
        <ele>46</ele>
        <time>2015-09-03T09:40:39Z</time>
      </trkpt>
      <trkpt lat="44.03952" lon="0.38708">
        <ele>42</ele>
        <time>2015-09-03T09:40:51Z</time>
      </trkpt>
      <trkpt lat="44.03945" lon="0.38697">
        <ele>42</ele>
        <time>2015-09-03T09:41:03Z</time>
      </trkpt>
      <trkpt lat="44.03939" lon="0.38688">
        <ele>42</ele>
        <time>2015-09-03T09:41:12Z</time>
      </trkpt>
      <trkpt lat="44.03932" lon="0.38679">
        <ele>42</ele>
        <time>2015-09-03T09:41:21Z</time>
      </trkpt>
      <trkpt lat="44.03925" lon="0.38671">
        <ele>42</ele>
        <time>2015-09-03T09:41:32Z</time>
      </trkpt>
      <trkpt lat="44.03919" lon="0.3866">
        <ele>42</ele>
        <time>2015-09-03T09:41:40Z</time>
      </trkpt>
      <trkpt lat="44.03915" lon="0.38648">
        <ele>42</ele>
        <time>2015-09-03T09:41:47Z</time>
      </trkpt>
      <trkpt lat="44.0391" lon="0.38637">
        <ele>42</ele>
        <time>2015-09-03T09:41:55Z</time>
      </trkpt>
      <trkpt lat="44.03907" lon="0.38624">
        <ele>42</ele>
        <time>2015-09-03T09:42:04Z</time>
      </trkpt>
      <trkpt lat="44.03903" lon="0.38612">
        <ele>42</ele>
        <time>2015-09-03T09:42:13Z</time>
      </trkpt>
      <trkpt lat="44.039" lon="0.38601">
        <ele>42</ele>
        <time>2015-09-03T09:42:23Z</time>
      </trkpt>
      <trkpt lat="44.03895" lon="0.3859">
        <ele>47</ele>
        <time>2015-09-03T09:42:30Z</time>
      </trkpt>
      <trkpt lat="44.03889" lon="0.38578">
        <ele>47</ele>
        <time>2015-09-03T09:42:39Z</time>
      </trkpt>
      <trkpt lat="44.03884" lon="0.38566">
        <ele>47</ele>
        <time>2015-09-03T09:42:48Z</time>
      </trkpt>
      <trkpt lat="44.03878" lon="0.38556">
        <ele>47</ele>
        <time>2015-09-03T09:42:55Z</time>
      </trkpt>
      <trkpt lat="44.03873" lon="0.38544">
        <ele>47</ele>
        <time>2015-09-03T09:43:06Z</time>
      </trkpt>
      <trkpt lat="44.03869" lon="0.38533">
        <ele>47</ele>
        <time>2015-09-03T09:43:17Z</time>
      </trkpt>
      <trkpt lat="44.03864" lon="0.38521">
        <ele>52</ele>
        <time>2015-09-03T09:43:30Z</time>
      </trkpt>
      <trkpt lat="44.03858" lon="0.38511">
        <ele>52</ele>
        <time>2015-09-03T09:43:38Z</time>
      </trkpt>
      <trkpt lat="44.03853" lon="0.385">
        <ele>52</ele>
        <time>2015-09-03T09:43:48Z</time>
      </trkpt>
      <trkpt lat="44.03848" lon="0.38489">
        <ele>52</ele>
        <time>2015-09-03T09:44:19Z</time>
      </trkpt>
      <trkpt lat="44.03843" lon="0.38477">
        <ele>52</ele>
        <time>2015-09-03T09:44:32Z</time>
      </trkpt>
      <trkpt lat="44.03838" lon="0.38467">
        <ele>52</ele>
        <time>2015-09-03T09:44:43Z</time>
      </trkpt>
      <trkpt lat="44.03831" lon="0.38458">
        <ele>52</ele>
        <time>2015-09-03T09:44:54Z</time>
      </trkpt>
      <trkpt lat="44.03828" lon="0.38446">
        <ele>60</ele>
        <time>2015-09-03T09:45:06Z</time>
      </trkpt>
      <trkpt lat="44.03823" lon="0.38434">
        <ele>60</ele>
        <time>2015-09-03T09:45:15Z</time>
      </trkpt>
      <trkpt lat="44.03818" lon="0.38423">
        <ele>60</ele>
        <time>2015-09-03T09:45:23Z</time>
      </trkpt>
      <trkpt lat="44.03815" lon="0.3841">
        <ele>60</ele>
        <time>2015-09-03T09:45:35Z</time>
      </trkpt>
      <trkpt lat="44.03811" lon="0.38398">
        <ele>66</ele>
        <time>2015-09-03T09:45:45Z</time>
      </trkpt>
      <trkpt lat="44.03807" lon="0.38386">
        <ele>66</ele>
        <time>2015-09-03T09:45:55Z</time>
      </trkpt>
      <trkpt lat="44.03804" lon="0.38373">
        <ele>66</ele>
        <time>2015-09-03T09:46:05Z</time>
      </trkpt>
      <trkpt lat="44.03799" lon="0.38362">
        <ele>66</ele>
        <time>2015-09-03T09:46:16Z</time>
      </trkpt>
      <trkpt lat="44.03794" lon="0.3835">
        <ele>66</ele>
        <time>2015-09-03T09:46:27Z</time>
      </trkpt>
      <trkpt lat="44.03789" lon="0.3834">
        <ele>71</ele>
        <time>2015-09-03T09:46:36Z</time>
      </trkpt>
      <trkpt lat="44.03786" lon="0.38328">
        <ele>71</ele>
        <time>2015-09-03T09:46:46Z</time>
      </trkpt>
      <trkpt lat="44.03781" lon="0.38315">
        <ele>71</ele>
        <time>2015-09-03T09:46:53Z</time>
      </trkpt>
      <trkpt lat="44.03774" lon="0.38305">
        <ele>71</ele>
        <time>2015-09-03T09:47:01Z</time>
      </trkpt>
      <trkpt lat="44.03769" lon="0.38294">
        <ele>71</ele>
        <time>2015-09-03T09:47:08Z</time>
      </trkpt>
      <trkpt lat="44.03764" lon="0.38284">
        <ele>75</ele>
        <time>2015-09-03T09:47:14Z</time>
      </trkpt>
      <trkpt lat="44.03759" lon="0.38272">
        <ele>75</ele>
        <time>2015-09-03T09:47:23Z</time>
      </trkpt>
      <trkpt lat="44.03754" lon="0.38261">
        <ele>75</ele>
        <time>2015-09-03T09:47:32Z</time>
      </trkpt>
      <trkpt lat="44.03751" lon="0.38249">
        <ele>75</ele>
        <time>2015-09-03T09:47:40Z</time>
      </trkpt>
      <trkpt lat="44.03746" lon="0.38237">
        <ele>75</ele>
        <time>2015-09-03T09:47:50Z</time>
      </trkpt>
      <trkpt lat="44.03742" lon="0.38225">
        <ele>75</ele>
        <time>2015-09-03T09:47:58Z</time>
      </trkpt>
      <trkpt lat="44.03738" lon="0.38213">
        <ele>75</ele>
        <time>2015-09-03T09:48:08Z</time>
      </trkpt>
      <trkpt lat="44.03734" lon="0.38201">
        <ele>75</ele>
        <time>2015-09-03T09:48:17Z</time>
      </trkpt>
      <trkpt lat="44.03731" lon="0.38188">
        <ele>75</ele>
        <time>2015-09-03T09:48:25Z</time>
      </trkpt>
      <trkpt lat="44.03728" lon="0.38177">
        <ele>75</ele>
        <time>2015-09-03T09:48:34Z</time>
      </trkpt>
      <trkpt lat="44.03725" lon="0.38164">
        <ele>75</ele>
        <time>2015-09-03T09:48:42Z</time>
      </trkpt>
      <trkpt lat="44.03722" lon="0.38151">
        <ele>75</ele>
        <time>2015-09-03T09:48:52Z</time>
      </trkpt>
      <trkpt lat="44.03718" lon="0.38139">
        <ele>75</ele>
        <time>2015-09-03T09:49:00Z</time>
      </trkpt>
      <trkpt lat="44.03713" lon="0.38128">
        <ele>75</ele>
        <time>2015-09-03T09:49:07Z</time>
      </trkpt>
      <trkpt lat="44.03708" lon="0.38117">
        <ele>75</ele>
        <time>2015-09-03T09:49:16Z</time>
      </trkpt>
      <trkpt lat="44.03702" lon="0.38106">
        <ele>75</ele>
        <time>2015-09-03T09:49:24Z</time>
      </trkpt>
      <trkpt lat="44.03696" lon="0.38096">
        <ele>75</ele>
        <time>2015-09-03T09:49:31Z</time>
      </trkpt>
      <trkpt lat="44.0369" lon="0.38086">
        <ele>75</ele>
        <time>2015-09-03T09:49:42Z</time>
      </trkpt>
      <trkpt lat="44.03682" lon="0.38076">
        <ele>75</ele>
        <time>2015-09-03T09:49:50Z</time>
      </trkpt>
      <trkpt lat="44.03675" lon="0.38067">
        <ele>75</ele>
        <time>2015-09-03T09:49:59Z</time>
      </trkpt>
      <trkpt lat="44.03668" lon="0.38058">
        <ele>75</ele>
        <time>2015-09-03T09:50:07Z</time>
      </trkpt>
      <trkpt lat="44.03661" lon="0.3805">
        <ele>75</ele>
        <time>2015-09-03T09:50:15Z</time>
      </trkpt>
      <trkpt lat="44.03653" lon="0.38042">
        <ele>75</ele>
        <time>2015-09-03T09:50:25Z</time>
      </trkpt>
      <trkpt lat="44.03645" lon="0.38034">
        <ele>75</ele>
        <time>2015-09-03T09:50:33Z</time>
      </trkpt>
      <trkpt lat="44.03637" lon="0.38027">
        <ele>75</ele>
        <time>2015-09-03T09:50:45Z</time>
      </trkpt>
      <trkpt lat="44.03629" lon="0.3802">
        <ele>75</ele>
        <time>2015-09-03T09:50:54Z</time>
      </trkpt>
      <trkpt lat="44.03621" lon="0.38013">
        <ele>74</ele>
        <time>2015-09-03T09:51:03Z</time>
      </trkpt>
      <trkpt lat="44.03614" lon="0.38005">
        <ele>74</ele>
        <time>2015-09-03T09:51:11Z</time>
      </trkpt>
      <trkpt lat="44.03606" lon="0.37997">
        <ele>74</ele>
        <time>2015-09-03T09:51:19Z</time>
      </trkpt>
      <trkpt lat="44.03599" lon="0.3799">
        <ele>74</ele>
        <time>2015-09-03T09:51:29Z</time>
      </trkpt>
      <trkpt lat="44.03592" lon="0.37982">
        <ele>74</ele>
        <time>2015-09-03T09:51:38Z</time>
      </trkpt>
      <trkpt lat="44.03584" lon="0.37973">
        <ele>74</ele>
        <time>2015-09-03T09:51:47Z</time>
      </trkpt>
      <trkpt lat="44.03576" lon="0.37966">
        <ele>74</ele>
        <time>2015-09-03T09:51:56Z</time>
      </trkpt>
      <trkpt lat="44.03568" lon="0.37959">
        <ele>74</ele>
        <time>2015-09-03T09:52:04Z</time>
      </trkpt>
      <trkpt lat="44.03559" lon="0.37951">
        <ele>74</ele>
        <time>2015-09-03T09:52:14Z</time>
      </trkpt>
      <trkpt lat="44.03552" lon="0.37944">
        <ele>74</ele>
        <time>2015-09-03T09:52:22Z</time>
      </trkpt>
      <trkpt lat="44.03545" lon="0.37936">
        <ele>74</ele>
        <time>2015-09-03T09:52:32Z</time>
      </trkpt>
      <trkpt lat="44.03537" lon="0.37928">
        <ele>74</ele>
        <time>2015-09-03T09:52:41Z</time>
      </trkpt>
      <trkpt lat="44.0353" lon="0.3792">
        <ele>74</ele>
        <time>2015-09-03T09:52:49Z</time>
      </trkpt>
      <trkpt lat="44.03532" lon="0.37907">
        <ele>74</ele>
        <time>2015-09-03T09:53:02Z</time>
      </trkpt>
      <trkpt lat="44.03539" lon="0.37899">
        <ele>74</ele>
        <time>2015-09-03T09:53:10Z</time>
      </trkpt>
      <trkpt lat="44.03545" lon="0.37889">
        <ele>74</ele>
        <time>2015-09-03T09:53:20Z</time>
      </trkpt>
      <trkpt lat="44.03551" lon="0.37878">
        <ele>74</ele>
        <time>2015-09-03T09:53:28Z</time>
      </trkpt>
      <trkpt lat="44.03557" lon="0.37866">
        <ele>74</ele>
        <time>2015-09-03T09:53:37Z</time>
      </trkpt>
      <trkpt lat="44.03562" lon="0.37856">
        <ele>74</ele>
        <time>2015-09-03T09:53:45Z</time>
      </trkpt>
      <trkpt lat="44.03567" lon="0.37845">
        <ele>74</ele>
        <time>2015-09-03T09:53:52Z</time>
      </trkpt>
      <trkpt lat="44.03571" lon="0.37832">
        <ele>75</ele>
        <time>2015-09-03T09:54:02Z</time>
      </trkpt>
      <trkpt lat="44.03576" lon="0.37821">
        <ele>75</ele>
        <time>2015-09-03T09:54:10Z</time>
      </trkpt>
      <trkpt lat="44.0358" lon="0.37809">
        <ele>75</ele>
        <time>2015-09-03T09:54:17Z</time>
      </trkpt>
      <trkpt lat="44.03585" lon="0.37797">
        <ele>75</ele>
        <time>2015-09-03T09:54:27Z</time>
      </trkpt>
      <trkpt lat="44.03589" lon="0.37786">
        <ele>75</ele>
        <time>2015-09-03T09:54:35Z</time>
      </trkpt>
      <trkpt lat="44.03593" lon="0.37773">
        <ele>75</ele>
        <time>2015-09-03T09:54:45Z</time>
      </trkpt>
      <trkpt lat="44.03598" lon="0.37762">
        <ele>75</ele>
        <time>2015-09-03T09:54:54Z</time>
      </trkpt>
      <trkpt lat="44.03602" lon="0.3775">
        <ele>75</ele>
        <time>2015-09-03T09:55:03Z</time>
      </trkpt>
      <trkpt lat="44.03609" lon="0.3774">
        <ele>75</ele>
        <time>2015-09-03T09:55:14Z</time>
      </trkpt>
      <trkpt lat="44.03613" lon="0.37728">
        <ele>75</ele>
        <time>2015-09-03T09:55:21Z</time>
      </trkpt>
      <trkpt lat="44.03616" lon="0.37716">
        <ele>75</ele>
        <time>2015-09-03T09:55:29Z</time>
      </trkpt>
      <trkpt lat="44.03621" lon="0.37704">
        <ele>70</ele>
        <time>2015-09-03T09:55:37Z</time>
      </trkpt>
      <trkpt lat="44.03624" lon="0.37691">
        <ele>70</ele>
        <time>2015-09-03T09:55:45Z</time>
      </trkpt>
      <trkpt lat="44.03627" lon="0.37679">
        <ele>70</ele>
        <time>2015-09-03T09:55:55Z</time>
      </trkpt>
      <trkpt lat="44.03631" lon="0.37668">
        <ele>70</ele>
        <time>2015-09-03T09:56:03Z</time>
      </trkpt>
      <trkpt lat="44.03635" lon="0.37656">
        <ele>70</ele>
        <time>2015-09-03T09:56:12Z</time>
      </trkpt>
      <trkpt lat="44.0364" lon="0.37645">
        <ele>70</ele>
        <time>2015-09-03T09:56:22Z</time>
      </trkpt>
      <trkpt lat="44.03646" lon="0.37636">
        <ele>70</ele>
        <time>2015-09-03T09:56:31Z</time>
      </trkpt>
      <trkpt lat="44.03648" lon="0.37623">
        <ele>70</ele>
        <time>2015-09-03T09:56:44Z</time>
      </trkpt>
      <trkpt lat="44.03645" lon="0.37611">
        <ele>70</ele>
        <time>2015-09-03T09:57:03Z</time>
      </trkpt>
      <trkpt lat="44.03641" lon="0.37599">
        <ele>66</ele>
        <time>2015-09-03T09:57:16Z</time>
      </trkpt>
      <trkpt lat="44.03635" lon="0.3759">
        <ele>66</ele>
        <time>2015-09-03T09:57:28Z</time>
      </trkpt>
      <trkpt lat="44.03627" lon="0.37583">
        <ele>59</ele>
        <time>2015-09-03T09:57:46Z</time>
      </trkpt>
      <trkpt lat="44.03619" lon="0.37576">
        <ele>59</ele>
        <time>2015-09-03T09:58:01Z</time>
      </trkpt>
      <trkpt lat="44.0362" lon="0.37563">
        <ele>59</ele>
        <time>2015-09-03T09:58:17Z</time>
      </trkpt>
      <trkpt lat="44.03619" lon="0.37549">
        <ele>52</ele>
        <time>2015-09-03T09:58:33Z</time>
      </trkpt>
      <trkpt lat="44.03617" lon="0.37536">
        <ele>52</ele>
        <time>2015-09-03T09:58:43Z</time>
      </trkpt>
      <trkpt lat="44.03613" lon="0.37524">
        <ele>52</ele>
        <time>2015-09-03T09:58:52Z</time>
      </trkpt>
      <trkpt lat="44.03607" lon="0.37514">
        <ele>52</ele>
        <time>2015-09-03T09:58:58Z</time>
      </trkpt>
      <trkpt lat="44.03601" lon="0.37505">
        <ele>52</ele>
        <time>2015-09-03T09:59:07Z</time>
      </trkpt>
      <trkpt lat="44.03593" lon="0.37498">
        <ele>52</ele>
        <time>2015-09-03T09:59:16Z</time>
      </trkpt>
      <trkpt lat="44.03584" lon="0.37491">
        <ele>48</ele>
        <time>2015-09-03T09:59:24Z</time>
      </trkpt>
      <trkpt lat="44.03576" lon="0.37483">
        <ele>48</ele>
        <time>2015-09-03T09:59:34Z</time>
      </trkpt>
      <trkpt lat="44.03568" lon="0.37476">
        <ele>48</ele>
        <time>2015-09-03T09:59:43Z</time>
      </trkpt>
      <trkpt lat="44.0356" lon="0.37468">
        <ele>48</ele>
        <time>2015-09-03T09:59:58Z</time>
      </trkpt>
      <trkpt lat="44.03552" lon="0.37462">
        <ele>48</ele>
        <time>2015-09-03T10:00:10Z</time>
      </trkpt>
      <trkpt lat="44.03545" lon="0.37454">
        <ele>55</ele>
        <time>2015-09-03T10:00:23Z</time>
      </trkpt>
      <trkpt lat="44.03536" lon="0.37448">
        <ele>55</ele>
        <time>2015-09-03T10:00:33Z</time>
      </trkpt>
      <trkpt lat="44.03528" lon="0.37441">
        <ele>55</ele>
        <time>2015-09-03T10:00:44Z</time>
      </trkpt>
      <trkpt lat="44.03519" lon="0.37433">
        <ele>55</ele>
        <time>2015-09-03T10:00:53Z</time>
      </trkpt>
      <trkpt lat="44.03511" lon="0.37425">
        <ele>59</ele>
        <time>2015-09-03T10:01:02Z</time>
      </trkpt>
      <trkpt lat="44.03506" lon="0.37414">
        <ele>59</ele>
        <time>2015-09-03T10:01:10Z</time>
      </trkpt>
      <trkpt lat="44.03506" lon="0.37401">
        <ele>55</ele>
        <time>2015-09-03T10:01:21Z</time>
      </trkpt>
      <trkpt lat="44.03507" lon="0.37388">
        <ele>55</ele>
        <time>2015-09-03T10:01:30Z</time>
      </trkpt>
      <trkpt lat="44.03511" lon="0.37377">
        <ele>59</ele>
        <time>2015-09-03T10:01:40Z</time>
      </trkpt>
      <trkpt lat="44.03514" lon="0.37365">
        <ele>59</ele>
        <time>2015-09-03T10:01:48Z</time>
      </trkpt>
      <trkpt lat="44.03518" lon="0.37352">
        <ele>59</ele>
        <time>2015-09-03T10:01:54Z</time>
      </trkpt>
      <trkpt lat="44.03522" lon="0.37341">
        <ele>59</ele>
        <time>2015-09-03T10:02:02Z</time>
      </trkpt>
      <trkpt lat="44.03524" lon="0.37328">
        <ele>59</ele>
        <time>2015-09-03T10:02:10Z</time>
      </trkpt>
      <trkpt lat="44.03525" lon="0.37315">
        <ele>59</ele>
        <time>2015-09-03T10:02:17Z</time>
      </trkpt>
      <trkpt lat="44.03524" lon="0.37301">
        <ele>59</ele>
        <time>2015-09-03T10:02:26Z</time>
      </trkpt>
      <trkpt lat="44.0352" lon="0.37288">
        <ele>63</ele>
        <time>2015-09-03T10:02:35Z</time>
      </trkpt>
      <trkpt lat="44.03516" lon="0.37277">
        <ele>63</ele>
        <time>2015-09-03T10:02:44Z</time>
      </trkpt>
      <trkpt lat="44.03511" lon="0.37266">
        <ele>63</ele>
        <time>2015-09-03T10:02:52Z</time>
      </trkpt>
      <trkpt lat="44.03505" lon="0.37255">
        <ele>63</ele>
        <time>2015-09-03T10:02:59Z</time>
      </trkpt>
      <trkpt lat="44.035" lon="0.37244">
        <ele>63</ele>
        <time>2015-09-03T10:03:09Z</time>
      </trkpt>
      <trkpt lat="44.03494" lon="0.37234">
        <ele>63</ele>
        <time>2015-09-03T10:03:17Z</time>
      </trkpt>
    </trkseg>
  </trk>
</gpx>